<?xml version="1.0" encoding="UTF-8" standalone="no" ?>
<gpx xmlns="http://www.topografix.com/GPX/1/1" xmlns:xsi="http://www.w3.org/2001/XMLSchema-instance" xsi:schemaLocation="http://www.topografix.com/GPX/1/1 http://www.topografix.com/GPX/1/1/gpx.xsd" version="1.1" creator="VisuGPX - https://www.visugpx.com">
  <metadata>
    <name>Villerest du barrage à St Jean St Maurice G2</name>
    <desc><![CDATA[<p>Heure de départ: 09:25 20 juin 2019<br/>Heure d'arrivée: 13:47 22 juin 2019<br/>Distance: 19,5 km (52:21)<br/>Temps déplacement: 49:55<br/>Vitesse moyenne: 0,37 km/h<br/>Vitesse moyenne mouv.: 0,39 km/h<br/>Vitesse Max.: 7,66 km/h<br/>Altitude minimale: 273 m<br/>Altitude maximale: 433 m<br/>Vitesse de montée: 154,3 m/h<br/>Vitesse de descente: -11 m/h<br/>Gain d'altitude: 488 m<br/>Perte d'altitude: -538 m<br/>Temps de montée: 03:09<br/>Temps de descente: 48:59<br/></p><hr align="center" width="480" style="height: 2px; width: 517px"/>]]></desc>
  </metadata>
  <trk>
    <name><![CDATA[2019-06-20 09:25]]></name>
    <desc><![CDATA[<p>Heure de départ: 09:25 20 juin 2019<br/>Heure d'arrivée: 13:47 22 juin 2019<br/>Distance: 19,5 km (52:21)<br/>Temps déplacement: 49:55<br/>Vitesse moyenne: 0,37 km/h<br/>Vitesse moyenne mouv.: 0,39 km/h<br/>Vitesse Max.: 7,66 km/h<br/>Altitude minimale: 273 m<br/>Altitude maximale: 433 m<br/>Vitesse de montée: 154,3 m/h<br/>Vitesse de descente: -11 m/h<br/>Gain d'altitude: 488 m<br/>Perte d'altitude: -538 m<br/>Temps de montée: 03:09<br/>Temps de descente: 48:59<br/></p><hr align="center" width="480" style="height: 2px; width: 517px"/>]]></desc>
    <extensions>
      <line xmlns="http://www.topografix.com/GPX/gpx_style/0/2">
        <color>0000FF</color>
        <width>4</width>
      </line>
    </extensions>
    <trkseg>
      <trkpt lat="45.97514" lon="4.03913">
        <ele>394.29</ele>
        <time>2019-06-20T07:25:37Z</time>
      </trkpt>
      <trkpt lat="45.97505" lon="4.03889">
        <ele>393.18</ele>
        <time>2019-06-20T07:25:51Z</time>
      </trkpt>
      <trkpt lat="45.9749" lon="4.03653">
        <ele>387.28</ele>
        <time>2019-06-20T07:29:35Z</time>
      </trkpt>
      <trkpt lat="45.97492" lon="4.03627">
        <ele>384.6</ele>
        <time>2019-06-20T07:29:51Z</time>
      </trkpt>
      <trkpt lat="45.97482" lon="4.03605">
        <ele>382.67</ele>
        <time>2019-06-20T07:30:07Z</time>
      </trkpt>
      <trkpt lat="45.97471" lon="4.03584">
        <ele>381.89</ele>
        <time>2019-06-20T07:30:23Z</time>
      </trkpt>
      <trkpt lat="45.97462" lon="4.03561">
        <ele>381.92</ele>
        <time>2019-06-20T07:30:37Z</time>
      </trkpt>
      <trkpt lat="45.97455" lon="4.03535">
        <ele>378.53</ele>
        <time>2019-06-20T07:30:55Z</time>
      </trkpt>
      <trkpt lat="45.97454" lon="4.03507">
        <ele>382.48</ele>
        <time>2019-06-20T07:31:13Z</time>
      </trkpt>
      <trkpt lat="45.97461" lon="4.03482">
        <ele>379.09</ele>
        <time>2019-06-20T07:31:29Z</time>
      </trkpt>
      <trkpt lat="45.97465" lon="4.03457">
        <ele>375.69</ele>
        <time>2019-06-20T07:31:43Z</time>
      </trkpt>
      <trkpt lat="45.97597" lon="4.03548">
        <ele>373.91</ele>
        <time>2019-06-20T07:34:42Z</time>
      </trkpt>
      <trkpt lat="45.97606" lon="4.03573">
        <ele>372.07</ele>
        <time>2019-06-20T07:35:32Z</time>
      </trkpt>
      <trkpt lat="45.97615" lon="4.03597">
        <ele>371.64</ele>
        <time>2019-06-20T07:35:49Z</time>
      </trkpt>
      <trkpt lat="45.97623" lon="4.03622">
        <ele>370.53</ele>
        <time>2019-06-20T07:36:19Z</time>
      </trkpt>
      <trkpt lat="45.97626" lon="4.03648">
        <ele>369.54</ele>
        <time>2019-06-20T07:36:35Z</time>
      </trkpt>
      <trkpt lat="45.97635" lon="4.03674">
        <ele>368.76</ele>
        <time>2019-06-20T07:36:53Z</time>
      </trkpt>
      <trkpt lat="45.97637" lon="4.03702">
        <ele>368.55</ele>
        <time>2019-06-20T07:37:07Z</time>
      </trkpt>
      <trkpt lat="45.97636" lon="4.03732">
        <ele>367.06</ele>
        <time>2019-06-20T07:37:27Z</time>
      </trkpt>
      <trkpt lat="45.97638" lon="4.03758">
        <ele>366.55</ele>
        <time>2019-06-20T07:37:43Z</time>
      </trkpt>
      <trkpt lat="45.97645" lon="4.03783">
        <ele>365.72</ele>
        <time>2019-06-20T07:38:03Z</time>
      </trkpt>
      <trkpt lat="45.97653" lon="4.03808">
        <ele>364.94</ele>
        <time>2019-06-20T07:38:21Z</time>
      </trkpt>
      <trkpt lat="45.97667" lon="4.03828">
        <ele>362.88</ele>
        <time>2019-06-20T07:38:37Z</time>
      </trkpt>
      <trkpt lat="45.97684" lon="4.03847">
        <ele>363.41</ele>
        <time>2019-06-20T07:38:53Z</time>
      </trkpt>
      <trkpt lat="45.97699" lon="4.03864">
        <ele>362.35</ele>
        <time>2019-06-20T07:39:07Z</time>
      </trkpt>
      <trkpt lat="45.97713" lon="4.03887">
        <ele>361.43</ele>
        <time>2019-06-20T07:39:25Z</time>
      </trkpt>
      <trkpt lat="45.97725" lon="4.03909">
        <ele>360.97</ele>
        <time>2019-06-20T07:39:41Z</time>
      </trkpt>
      <trkpt lat="45.97737" lon="4.03932">
        <ele>359.13</ele>
        <time>2019-06-20T07:39:59Z</time>
      </trkpt>
      <trkpt lat="45.97747" lon="4.03954">
        <ele>359.86</ele>
        <time>2019-06-20T07:40:13Z</time>
      </trkpt>
      <trkpt lat="45.97753" lon="4.03979">
        <ele>360.23</ele>
        <time>2019-06-20T07:40:25Z</time>
      </trkpt>
      <trkpt lat="45.97763" lon="4.04004">
        <ele>358.53</ele>
        <time>2019-06-20T07:40:43Z</time>
      </trkpt>
      <trkpt lat="45.97774" lon="4.04027">
        <ele>359.02</ele>
        <time>2019-06-20T07:41:01Z</time>
      </trkpt>
      <trkpt lat="45.97784" lon="4.04052">
        <ele>358.69</ele>
        <time>2019-06-20T07:41:17Z</time>
      </trkpt>
      <trkpt lat="45.97802" lon="4.04066">
        <ele>357.83</ele>
        <time>2019-06-20T07:41:35Z</time>
      </trkpt>
      <trkpt lat="45.9782" lon="4.04081">
        <ele>357.52</ele>
        <time>2019-06-20T07:41:47Z</time>
      </trkpt>
      <trkpt lat="45.97838" lon="4.04086">
        <ele>352.74</ele>
        <time>2019-06-20T07:42:17Z</time>
      </trkpt>
      <trkpt lat="45.97857" lon="4.04081">
        <ele>355.92</ele>
        <time>2019-06-20T07:42:41Z</time>
      </trkpt>
      <trkpt lat="45.97874" lon="4.04071">
        <ele>357.31</ele>
        <time>2019-06-20T07:42:55Z</time>
      </trkpt>
      <trkpt lat="45.97891" lon="4.04061">
        <ele>356.83</ele>
        <time>2019-06-20T07:43:05Z</time>
      </trkpt>
      <trkpt lat="45.97909" lon="4.04052">
        <ele>356.2</ele>
        <time>2019-06-20T07:43:19Z</time>
      </trkpt>
      <trkpt lat="45.97928" lon="4.04047">
        <ele>355.05</ele>
        <time>2019-06-20T07:43:37Z</time>
      </trkpt>
      <trkpt lat="45.97946" lon="4.04056">
        <ele>353.06</ele>
        <time>2019-06-20T07:43:53Z</time>
      </trkpt>
      <trkpt lat="45.97964" lon="4.04065">
        <ele>353.07</ele>
        <time>2019-06-20T07:44:09Z</time>
      </trkpt>
      <trkpt lat="45.97982" lon="4.04076">
        <ele>352.86</ele>
        <time>2019-06-20T07:44:27Z</time>
      </trkpt>
      <trkpt lat="45.98001" lon="4.04087">
        <ele>351.97</ele>
        <time>2019-06-20T07:44:41Z</time>
      </trkpt>
      <trkpt lat="45.98019" lon="4.04101">
        <ele>351.3</ele>
        <time>2019-06-20T07:45:01Z</time>
      </trkpt>
      <trkpt lat="45.98036" lon="4.04111">
        <ele>349.92</ele>
        <time>2019-06-20T07:45:13Z</time>
      </trkpt>
      <trkpt lat="45.98053" lon="4.04119">
        <ele>349.49</ele>
        <time>2019-06-20T07:45:25Z</time>
      </trkpt>
      <trkpt lat="45.98073" lon="4.04128">
        <ele>349.24</ele>
        <time>2019-06-20T07:45:49Z</time>
      </trkpt>
      <trkpt lat="45.98093" lon="4.04133">
        <ele>348.52</ele>
        <time>2019-06-20T07:46:07Z</time>
      </trkpt>
      <trkpt lat="45.98109" lon="4.04146">
        <ele>347.27</ele>
        <time>2019-06-20T07:46:23Z</time>
      </trkpt>
      <trkpt lat="45.98125" lon="4.04158">
        <ele>346.25</ele>
        <time>2019-06-20T07:46:35Z</time>
      </trkpt>
      <trkpt lat="45.98142" lon="4.04174">
        <ele>345.73</ele>
        <time>2019-06-20T07:46:55Z</time>
      </trkpt>
      <trkpt lat="45.98159" lon="4.0419">
        <ele>344.34</ele>
        <time>2019-06-20T07:47:07Z</time>
      </trkpt>
      <trkpt lat="45.98174" lon="4.04203">
        <ele>343.89</ele>
        <time>2019-06-20T07:47:25Z</time>
      </trkpt>
      <trkpt lat="45.98194" lon="4.04213">
        <ele>342.77</ele>
        <time>2019-06-20T07:47:39Z</time>
      </trkpt>
      <trkpt lat="45.98213" lon="4.04223">
        <ele>342.86</ele>
        <time>2019-06-20T07:47:57Z</time>
      </trkpt>
      <trkpt lat="45.98231" lon="4.04233">
        <ele>343.18</ele>
        <time>2019-06-20T07:48:13Z</time>
      </trkpt>
      <trkpt lat="45.98248" lon="4.04248">
        <ele>343.17</ele>
        <time>2019-06-20T07:48:31Z</time>
      </trkpt>
      <trkpt lat="45.98258" lon="4.04272">
        <ele>343.95</ele>
        <time>2019-06-20T07:48:45Z</time>
      </trkpt>
      <trkpt lat="45.98264" lon="4.04297">
        <ele>343.71</ele>
        <time>2019-06-20T07:49:37Z</time>
      </trkpt>
      <trkpt lat="45.98268" lon="4.04322">
        <ele>344.76</ele>
        <time>2019-06-20T07:49:55Z</time>
      </trkpt>
      <trkpt lat="45.98265" lon="4.0435">
        <ele>343.9</ele>
        <time>2019-06-20T07:50:13Z</time>
      </trkpt>
      <trkpt lat="45.98262" lon="4.04376">
        <ele>344.89</ele>
        <time>2019-06-20T07:50:31Z</time>
      </trkpt>
      <trkpt lat="45.98265" lon="4.04402">
        <ele>345.67</ele>
        <time>2019-06-20T07:50:51Z</time>
      </trkpt>
      <trkpt lat="45.98264" lon="4.04429">
        <ele>346.29</ele>
        <time>2019-06-20T07:51:11Z</time>
      </trkpt>
      <trkpt lat="45.98259" lon="4.04455">
        <ele>346.34</ele>
        <time>2019-06-20T07:51:29Z</time>
      </trkpt>
      <trkpt lat="45.98253" lon="4.04484">
        <ele>347.21</ele>
        <time>2019-06-20T07:51:55Z</time>
      </trkpt>
      <trkpt lat="45.98249" lon="4.04514">
        <ele>347.64</ele>
        <time>2019-06-20T07:52:11Z</time>
      </trkpt>
      <trkpt lat="45.9824" lon="4.04538">
        <ele>348.29</ele>
        <time>2019-06-20T07:52:25Z</time>
      </trkpt>
      <trkpt lat="45.98229" lon="4.04559">
        <ele>348.16</ele>
        <time>2019-06-20T07:52:47Z</time>
      </trkpt>
      <trkpt lat="45.98218" lon="4.04582">
        <ele>348.93</ele>
        <time>2019-06-20T07:53:05Z</time>
      </trkpt>
      <trkpt lat="45.98203" lon="4.04601">
        <ele>349.26</ele>
        <time>2019-06-20T07:53:23Z</time>
      </trkpt>
      <trkpt lat="45.98188" lon="4.0462">
        <ele>349.75</ele>
        <time>2019-06-20T07:53:37Z</time>
      </trkpt>
      <trkpt lat="45.98173" lon="4.04641">
        <ele>350.66</ele>
        <time>2019-06-20T07:53:53Z</time>
      </trkpt>
      <trkpt lat="45.98163" lon="4.04667">
        <ele>351.61</ele>
        <time>2019-06-20T07:54:13Z</time>
      </trkpt>
      <trkpt lat="45.98149" lon="4.04684">
        <ele>351.81</ele>
        <time>2019-06-20T07:54:27Z</time>
      </trkpt>
      <trkpt lat="45.98135" lon="4.04702">
        <ele>351.53</ele>
        <time>2019-06-20T07:54:43Z</time>
      </trkpt>
      <trkpt lat="45.98125" lon="4.04725">
        <ele>352.84</ele>
        <time>2019-06-20T07:54:57Z</time>
      </trkpt>
      <trkpt lat="45.98118" lon="4.04749">
        <ele>352.84</ele>
        <time>2019-06-20T07:55:13Z</time>
      </trkpt>
      <trkpt lat="45.98109" lon="4.04772">
        <ele>353.97</ele>
        <time>2019-06-20T07:55:29Z</time>
      </trkpt>
      <trkpt lat="45.98107" lon="4.04799">
        <ele>354.82</ele>
        <time>2019-06-20T07:55:45Z</time>
      </trkpt>
      <trkpt lat="45.98113" lon="4.04825">
        <ele>355.8</ele>
        <time>2019-06-20T07:56:01Z</time>
      </trkpt>
      <trkpt lat="45.98133" lon="4.04838">
        <ele>355.67</ele>
        <time>2019-06-20T07:56:19Z</time>
      </trkpt>
      <trkpt lat="45.98152" lon="4.04836">
        <ele>356.37</ele>
        <time>2019-06-20T07:56:35Z</time>
      </trkpt>
      <trkpt lat="45.98168" lon="4.04825">
        <ele>356.65</ele>
        <time>2019-06-20T07:56:45Z</time>
      </trkpt>
      <trkpt lat="45.98181" lon="4.04801">
        <ele>356.35</ele>
        <time>2019-06-20T07:57:03Z</time>
      </trkpt>
      <trkpt lat="45.98194" lon="4.04782">
        <ele>357.71</ele>
        <time>2019-06-20T07:57:17Z</time>
      </trkpt>
      <trkpt lat="45.98208" lon="4.04764">
        <ele>358.06</ele>
        <time>2019-06-20T07:57:33Z</time>
      </trkpt>
      <trkpt lat="45.98227" lon="4.04758">
        <ele>358.61</ele>
        <time>2019-06-20T07:57:49Z</time>
      </trkpt>
      <trkpt lat="45.98245" lon="4.04758">
        <ele>358.72</ele>
        <time>2019-06-20T07:58:05Z</time>
      </trkpt>
      <trkpt lat="45.98263" lon="4.04765">
        <ele>359.61</ele>
        <time>2019-06-20T07:58:21Z</time>
      </trkpt>
      <trkpt lat="45.9828" lon="4.04776">
        <ele>359.28</ele>
        <time>2019-06-20T07:58:37Z</time>
      </trkpt>
      <trkpt lat="45.98293" lon="4.04796">
        <ele>360.38</ele>
        <time>2019-06-20T07:58:53Z</time>
      </trkpt>
      <trkpt lat="45.98309" lon="4.04808">
        <ele>361.16</ele>
        <time>2019-06-20T07:59:21Z</time>
      </trkpt>
      <trkpt lat="45.98321" lon="4.04829">
        <ele>361.88</ele>
        <time>2019-06-20T07:59:37Z</time>
      </trkpt>
      <trkpt lat="45.98331" lon="4.0485">
        <ele>362.43</ele>
        <time>2019-06-20T07:59:51Z</time>
      </trkpt>
      <trkpt lat="45.98342" lon="4.04871">
        <ele>362.81</ele>
        <time>2019-06-20T08:00:09Z</time>
      </trkpt>
      <trkpt lat="45.98354" lon="4.04892">
        <ele>363.45</ele>
        <time>2019-06-20T08:00:23Z</time>
      </trkpt>
      <trkpt lat="45.9837" lon="4.04911">
        <ele>363.86</ele>
        <time>2019-06-20T08:00:41Z</time>
      </trkpt>
      <trkpt lat="45.98386" lon="4.04927">
        <ele>363.65</ele>
        <time>2019-06-20T08:00:59Z</time>
      </trkpt>
      <trkpt lat="45.98402" lon="4.0494">
        <ele>364.5</ele>
        <time>2019-06-20T08:01:15Z</time>
      </trkpt>
      <trkpt lat="45.98422" lon="4.04946">
        <ele>366.21</ele>
        <time>2019-06-20T08:01:31Z</time>
      </trkpt>
      <trkpt lat="45.9844" lon="4.04948">
        <ele>366.74</ele>
        <time>2019-06-20T08:01:47Z</time>
      </trkpt>
      <trkpt lat="45.9846" lon="4.04951">
        <ele>365.35</ele>
        <time>2019-06-20T08:02:03Z</time>
      </trkpt>
      <trkpt lat="45.98479" lon="4.04952">
        <ele>367.14</ele>
        <time>2019-06-20T08:02:21Z</time>
      </trkpt>
      <trkpt lat="45.98497" lon="4.0496">
        <ele>369.55</ele>
        <time>2019-06-20T08:02:39Z</time>
      </trkpt>
      <trkpt lat="45.98513" lon="4.04975">
        <ele>369.95</ele>
        <time>2019-06-20T08:04:09Z</time>
      </trkpt>
      <trkpt lat="45.98522" lon="4.04998">
        <ele>370.67</ele>
        <time>2019-06-20T08:04:27Z</time>
      </trkpt>
      <trkpt lat="45.98524" lon="4.05025">
        <ele>370.86</ele>
        <time>2019-06-20T08:04:45Z</time>
      </trkpt>
      <trkpt lat="45.9852" lon="4.05051">
        <ele>371.23</ele>
        <time>2019-06-20T08:05:03Z</time>
      </trkpt>
      <trkpt lat="45.98513" lon="4.05075">
        <ele>370.92</ele>
        <time>2019-06-20T08:05:21Z</time>
      </trkpt>
      <trkpt lat="45.98512" lon="4.05103">
        <ele>373.44</ele>
        <time>2019-06-20T08:05:39Z</time>
      </trkpt>
      <trkpt lat="45.98515" lon="4.05129">
        <ele>373.95</ele>
        <time>2019-06-20T08:05:51Z</time>
      </trkpt>
      <trkpt lat="45.98529" lon="4.05148">
        <ele>374.15</ele>
        <time>2019-06-20T08:06:09Z</time>
      </trkpt>
      <trkpt lat="45.98549" lon="4.05142">
        <ele>375.09</ele>
        <time>2019-06-20T08:06:21Z</time>
      </trkpt>
      <trkpt lat="45.98566" lon="4.05131">
        <ele>376.61</ele>
        <time>2019-06-20T08:06:37Z</time>
      </trkpt>
      <trkpt lat="45.98584" lon="4.05135">
        <ele>377.67</ele>
        <time>2019-06-20T08:06:56Z</time>
      </trkpt>
      <trkpt lat="45.98602" lon="4.05138">
        <ele>378.59</ele>
        <time>2019-06-20T08:07:10Z</time>
      </trkpt>
      <trkpt lat="45.98619" lon="4.05128">
        <ele>382.11</ele>
        <time>2019-06-20T08:07:42Z</time>
      </trkpt>
      <trkpt lat="45.98632" lon="4.05147">
        <ele>389.27</ele>
        <time>2019-06-20T08:08:24Z</time>
      </trkpt>
      <trkpt lat="45.98651" lon="4.05153">
        <ele>394.75</ele>
        <time>2019-06-20T08:08:56Z</time>
      </trkpt>
      <trkpt lat="45.98659" lon="4.05128">
        <ele>396.45</ele>
        <time>2019-06-20T08:09:20Z</time>
      </trkpt>
      <trkpt lat="45.98667" lon="4.05104">
        <ele>397.5</ele>
        <time>2019-06-20T08:09:38Z</time>
      </trkpt>
      <trkpt lat="45.98675" lon="4.05081">
        <ele>396.72</ele>
        <time>2019-06-20T08:09:56Z</time>
      </trkpt>
      <trkpt lat="45.98689" lon="4.05097">
        <ele>396.78</ele>
        <time>2019-06-20T08:13:16Z</time>
      </trkpt>
      <trkpt lat="45.98688" lon="4.05123">
        <ele>398.86</ele>
        <time>2019-06-20T08:16:30Z</time>
      </trkpt>
      <trkpt lat="45.98707" lon="4.05126">
        <ele>394.99</ele>
        <time>2019-06-20T08:17:38Z</time>
      </trkpt>
      <trkpt lat="45.98725" lon="4.0512">
        <ele>391.63</ele>
        <time>2019-06-20T08:18:00Z</time>
      </trkpt>
      <trkpt lat="45.98744" lon="4.05122">
        <ele>389.17</ele>
        <time>2019-06-20T08:18:18Z</time>
      </trkpt>
      <trkpt lat="45.98763" lon="4.05132">
        <ele>387.72</ele>
        <time>2019-06-20T08:18:38Z</time>
      </trkpt>
      <trkpt lat="45.98776" lon="4.05151">
        <ele>388.44</ele>
        <time>2019-06-20T08:18:58Z</time>
      </trkpt>
      <trkpt lat="45.98791" lon="4.05165">
        <ele>389.07</ele>
        <time>2019-06-20T08:19:16Z</time>
      </trkpt>
      <trkpt lat="45.9881" lon="4.05166">
        <ele>389.33</ele>
        <time>2019-06-20T08:19:38Z</time>
      </trkpt>
      <trkpt lat="45.98824" lon="4.05184">
        <ele>391.49</ele>
        <time>2019-06-20T08:20:20Z</time>
      </trkpt>
      <trkpt lat="45.98831" lon="4.05209">
        <ele>390.96</ele>
        <time>2019-06-20T08:20:40Z</time>
      </trkpt>
      <trkpt lat="45.98831" lon="4.05181">
        <ele>391.4</ele>
        <time>2019-06-20T08:21:22Z</time>
      </trkpt>
      <trkpt lat="45.98844" lon="4.05163">
        <ele>392.52</ele>
        <time>2019-06-20T08:21:46Z</time>
      </trkpt>
      <trkpt lat="45.98863" lon="4.05166">
        <ele>394.52</ele>
        <time>2019-06-20T08:22:06Z</time>
      </trkpt>
      <trkpt lat="45.98881" lon="4.05171">
        <ele>396.39</ele>
        <time>2019-06-20T08:23:44Z</time>
      </trkpt>
      <trkpt lat="45.98901" lon="4.05169">
        <ele>394.57</ele>
        <time>2019-06-20T08:24:06Z</time>
      </trkpt>
      <trkpt lat="45.98918" lon="4.05182">
        <ele>390.59</ele>
        <time>2019-06-20T08:24:28Z</time>
      </trkpt>
      <trkpt lat="45.98929" lon="4.05203">
        <ele>386.84</ele>
        <time>2019-06-20T08:24:52Z</time>
      </trkpt>
      <trkpt lat="45.98933" lon="4.0523">
        <ele>387.71</ele>
        <time>2019-06-20T08:25:08Z</time>
      </trkpt>
      <trkpt lat="45.98923" lon="4.05252">
        <ele>383.57</ele>
        <time>2019-06-20T08:25:30Z</time>
      </trkpt>
      <trkpt lat="45.98933" lon="4.05274">
        <ele>379.41</ele>
        <time>2019-06-20T08:26:12Z</time>
      </trkpt>
      <trkpt lat="45.9895" lon="4.05263">
        <ele>378.41</ele>
        <time>2019-06-20T08:26:44Z</time>
      </trkpt>
      <trkpt lat="45.98956" lon="4.05237">
        <ele>379.35</ele>
        <time>2019-06-20T08:27:01Z</time>
      </trkpt>
      <trkpt lat="45.98959" lon="4.05208">
        <ele>374.53</ele>
        <time>2019-06-20T08:27:17Z</time>
      </trkpt>
      <trkpt lat="45.9896" lon="4.05179">
        <ele>372.18</ele>
        <time>2019-06-20T08:27:37Z</time>
      </trkpt>
      <trkpt lat="45.98961" lon="4.05149">
        <ele>371.42</ele>
        <time>2019-06-20T08:27:49Z</time>
      </trkpt>
      <trkpt lat="45.98949" lon="4.05129">
        <ele>369.21</ele>
        <time>2019-06-20T08:28:07Z</time>
      </trkpt>
      <trkpt lat="45.98934" lon="4.05109">
        <ele>367.3</ele>
        <time>2019-06-20T08:28:25Z</time>
      </trkpt>
      <trkpt lat="45.98915" lon="4.05098">
        <ele>365.17</ele>
        <time>2019-06-20T08:28:45Z</time>
      </trkpt>
      <trkpt lat="45.98895" lon="4.05097">
        <ele>363.12</ele>
        <time>2019-06-20T08:29:01Z</time>
      </trkpt>
      <trkpt lat="45.98876" lon="4.05091">
        <ele>360.61</ele>
        <time>2019-06-20T08:29:19Z</time>
      </trkpt>
      <trkpt lat="45.98857" lon="4.05089">
        <ele>358.88</ele>
        <time>2019-06-20T08:29:33Z</time>
      </trkpt>
      <trkpt lat="45.98839" lon="4.05088">
        <ele>356.73</ele>
        <time>2019-06-20T08:29:49Z</time>
      </trkpt>
      <trkpt lat="45.98821" lon="4.05078">
        <ele>353.99</ele>
        <time>2019-06-20T08:30:11Z</time>
      </trkpt>
      <trkpt lat="45.98807" lon="4.0506">
        <ele>352.14</ele>
        <time>2019-06-20T08:30:27Z</time>
      </trkpt>
      <trkpt lat="45.98791" lon="4.05041">
        <ele>350.41</ele>
        <time>2019-06-20T08:30:43Z</time>
      </trkpt>
      <trkpt lat="45.98777" lon="4.05023">
        <ele>348.14</ele>
        <time>2019-06-20T08:31:03Z</time>
      </trkpt>
      <trkpt lat="45.98761" lon="4.0501">
        <ele>346.47</ele>
        <time>2019-06-20T08:31:19Z</time>
      </trkpt>
      <trkpt lat="45.98745" lon="4.04994">
        <ele>344.72</ele>
        <time>2019-06-20T08:31:37Z</time>
      </trkpt>
      <trkpt lat="45.98728" lon="4.04983">
        <ele>343.54</ele>
        <time>2019-06-20T08:33:05Z</time>
      </trkpt>
      <trkpt lat="45.98708" lon="4.04973">
        <ele>342.26</ele>
        <time>2019-06-20T08:33:25Z</time>
      </trkpt>
      <trkpt lat="45.98689" lon="4.04974">
        <ele>341.55</ele>
        <time>2019-06-20T08:33:51Z</time>
      </trkpt>
      <trkpt lat="45.98673" lon="4.04963">
        <ele>341.75</ele>
        <time>2019-06-20T08:34:13Z</time>
      </trkpt>
      <trkpt lat="45.9866" lon="4.0494">
        <ele>341.77</ele>
        <time>2019-06-20T08:34:29Z</time>
      </trkpt>
      <trkpt lat="45.98649" lon="4.04917">
        <ele>341.79</ele>
        <time>2019-06-20T08:34:43Z</time>
      </trkpt>
      <trkpt lat="45.98641" lon="4.04892">
        <ele>341.79</ele>
        <time>2019-06-20T08:34:55Z</time>
      </trkpt>
      <trkpt lat="45.98637" lon="4.04865">
        <ele>341.83</ele>
        <time>2019-06-20T08:35:21Z</time>
      </trkpt>
      <trkpt lat="45.98631" lon="4.0484">
        <ele>340.97</ele>
        <time>2019-06-20T08:35:43Z</time>
      </trkpt>
      <trkpt lat="45.98624" lon="4.04815">
        <ele>340.6</ele>
        <time>2019-06-20T08:36:07Z</time>
      </trkpt>
      <trkpt lat="45.98629" lon="4.04789">
        <ele>340.85</ele>
        <time>2019-06-20T08:36:27Z</time>
      </trkpt>
      <trkpt lat="45.98637" lon="4.04763">
        <ele>340.59</ele>
        <time>2019-06-20T08:37:25Z</time>
      </trkpt>
      <trkpt lat="45.98641" lon="4.04737">
        <ele>341.05</ele>
        <time>2019-06-20T08:37:41Z</time>
      </trkpt>
      <trkpt lat="45.98647" lon="4.04712">
        <ele>340.92</ele>
        <time>2019-06-20T08:37:55Z</time>
      </trkpt>
      <trkpt lat="45.98657" lon="4.0469">
        <ele>341.79</ele>
        <time>2019-06-20T08:38:19Z</time>
      </trkpt>
      <trkpt lat="45.98665" lon="4.04667">
        <ele>342.41</ele>
        <time>2019-06-20T08:38:33Z</time>
      </trkpt>
      <trkpt lat="45.98673" lon="4.04641">
        <ele>341.56</ele>
        <time>2019-06-20T08:38:49Z</time>
      </trkpt>
      <trkpt lat="45.9868" lon="4.04616">
        <ele>341.64</ele>
        <time>2019-06-20T08:39:03Z</time>
      </trkpt>
      <trkpt lat="45.98692" lon="4.04595">
        <ele>342.29</ele>
        <time>2019-06-20T08:39:19Z</time>
      </trkpt>
      <trkpt lat="45.98703" lon="4.04573">
        <ele>342.03</ele>
        <time>2019-06-20T08:39:39Z</time>
      </trkpt>
      <trkpt lat="45.98713" lon="4.04549">
        <ele>341.98</ele>
        <time>2019-06-20T08:39:53Z</time>
      </trkpt>
      <trkpt lat="45.98722" lon="4.04526">
        <ele>341.86</ele>
        <time>2019-06-20T08:40:03Z</time>
      </trkpt>
      <trkpt lat="45.98731" lon="4.04502">
        <ele>341.49</ele>
        <time>2019-06-20T08:40:17Z</time>
      </trkpt>
      <trkpt lat="45.98745" lon="4.0448">
        <ele>341.59</ele>
        <time>2019-06-20T08:40:33Z</time>
      </trkpt>
      <trkpt lat="45.98755" lon="4.04451">
        <ele>341.63</ele>
        <time>2019-06-20T08:40:53Z</time>
      </trkpt>
      <trkpt lat="45.98766" lon="4.04428">
        <ele>341.74</ele>
        <time>2019-06-20T08:41:11Z</time>
        <extensions>
          <visugpx:TrkExtension xmlns:visugpx="https://www.visugpx.com/editgpx/">
            <visugpx:node>1</visugpx:node>
            </visugpx:TrkExtension>
        </extensions>
      </trkpt>
      <trkpt lat="45.98766" lon="4.04412">
        <ele>326.2</ele>
      </trkpt>
      <trkpt lat="45.98752" lon="4.04401">
        <ele>326.6</ele>
      </trkpt>
      <trkpt lat="45.98746" lon="4.04413">
        <ele>326.1</ele>
      </trkpt>
      <trkpt lat="45.9874" lon="4.04431">
        <ele>325.5</ele>
      </trkpt>
      <trkpt lat="45.98732" lon="4.04453">
        <ele>324.5</ele>
      </trkpt>
      <trkpt lat="45.98731" lon="4.04456">
        <ele>324.3</ele>
      </trkpt>
      <trkpt lat="45.98711" lon="4.045">
        <ele>323.6</ele>
      </trkpt>
      <trkpt lat="45.987" lon="4.04518">
        <ele>322.6</ele>
      </trkpt>
      <trkpt lat="45.98653" lon="4.04489">
        <ele>322.2</ele>
      </trkpt>
      <trkpt lat="45.98643" lon="4.04475">
        <ele>322.1</ele>
        <extensions>
          <visugpx:TrkExtension xmlns:visugpx="https://www.visugpx.com/editgpx/">
            <visugpx:node>2</visugpx:node>
            </visugpx:TrkExtension>
        </extensions>
      </trkpt>
      <trkpt lat="45.98632" lon="4.0446">
        <ele>321.8</ele>
      </trkpt>
      <trkpt lat="45.98619" lon="4.04439">
        <ele>322</ele>
      </trkpt>
      <trkpt lat="45.98608" lon="4.04423">
        <ele>321.7</ele>
      </trkpt>
      <trkpt lat="45.98592" lon="4.04395">
        <ele>320</ele>
      </trkpt>
      <trkpt lat="45.98578" lon="4.04362">
        <ele>317.8</ele>
      </trkpt>
      <trkpt lat="45.98574" lon="4.04349">
        <ele>317.7</ele>
      </trkpt>
      <trkpt lat="45.98562" lon="4.04299">
        <ele>318.3</ele>
      </trkpt>
      <trkpt lat="45.9857" lon="4.04263">
        <ele>320.6</ele>
      </trkpt>
      <trkpt lat="45.98573" lon="4.04232">
        <ele>320.9</ele>
      </trkpt>
      <trkpt lat="45.98572" lon="4.04198">
        <ele>320.1</ele>
      </trkpt>
      <trkpt lat="45.98595" lon="4.04094">
        <ele>322.2</ele>
      </trkpt>
      <trkpt lat="45.98599" lon="4.04066">
        <ele>321.9</ele>
      </trkpt>
      <trkpt lat="45.98596" lon="4.04047">
        <ele>320.8</ele>
      </trkpt>
      <trkpt lat="45.98584" lon="4.03995">
        <ele>317.9</ele>
        <extensions>
          <visugpx:TrkExtension xmlns:visugpx="https://www.visugpx.com/editgpx/">
            <visugpx:node>3</visugpx:node>
            </visugpx:TrkExtension>
        </extensions>
      </trkpt>
      <trkpt lat="45.98579" lon="4.03978">
        <ele>330.25</ele>
        <time>2019-06-20T09:47:01Z</time>
        <extensions>
          <visugpx:TrkExtension xmlns:visugpx="https://www.visugpx.com/editgpx/">
            <visugpx:node>4</visugpx:node>
            </visugpx:TrkExtension>
        </extensions>
      </trkpt>
      <trkpt lat="45.98574" lon="4.03952">
        <ele>331.34</ele>
        <time>2019-06-20T09:47:15Z</time>
      </trkpt>
      <trkpt lat="45.98567" lon="4.03924">
        <ele>330.99</ele>
        <time>2019-06-20T09:47:35Z</time>
      </trkpt>
      <trkpt lat="45.98556" lon="4.03901">
        <ele>331.24</ele>
        <time>2019-06-20T09:47:53Z</time>
      </trkpt>
      <trkpt lat="45.98558" lon="4.03873">
        <ele>331.28</ele>
        <time>2019-06-20T09:48:05Z</time>
      </trkpt>
      <trkpt lat="45.98562" lon="4.03845">
        <ele>331.29</ele>
        <time>2019-06-20T09:48:25Z</time>
      </trkpt>
      <trkpt lat="45.98568" lon="4.03819">
        <ele>330.94</ele>
        <time>2019-06-20T09:48:43Z</time>
      </trkpt>
      <trkpt lat="45.98569" lon="4.03792">
        <ele>331.03</ele>
        <time>2019-06-20T09:48:53Z</time>
      </trkpt>
      <trkpt lat="45.9855" lon="4.03795">
        <ele>330.71</ele>
        <time>2019-06-20T09:49:11Z</time>
      </trkpt>
      <trkpt lat="45.98532" lon="4.03802">
        <ele>330.66</ele>
        <time>2019-06-20T09:49:27Z</time>
      </trkpt>
      <trkpt lat="45.98512" lon="4.03806">
        <ele>331.17</ele>
        <time>2019-06-20T09:49:43Z</time>
      </trkpt>
      <trkpt lat="45.98497" lon="4.03787">
        <ele>330.39</ele>
        <time>2019-06-20T10:26:54Z</time>
      </trkpt>
      <trkpt lat="45.98488" lon="4.03765">
        <ele>330.19</ele>
        <time>2019-06-20T10:27:12Z</time>
      </trkpt>
      <trkpt lat="45.9848" lon="4.0374">
        <ele>330.43</ele>
        <time>2019-06-20T10:27:30Z</time>
      </trkpt>
      <trkpt lat="45.98473" lon="4.03714">
        <ele>330.42</ele>
        <time>2019-06-20T10:27:50Z</time>
      </trkpt>
      <trkpt lat="45.98466" lon="4.03687">
        <ele>330.14</ele>
        <time>2019-06-20T10:28:06Z</time>
      </trkpt>
      <trkpt lat="45.98454" lon="4.03663">
        <ele>329.96</ele>
        <time>2019-06-20T10:28:22Z</time>
      </trkpt>
      <trkpt lat="45.98443" lon="4.03639">
        <ele>329.87</ele>
        <time>2019-06-20T10:28:44Z</time>
      </trkpt>
      <trkpt lat="45.98427" lon="4.0362">
        <ele>329.47</ele>
        <time>2019-06-20T10:29:00Z</time>
      </trkpt>
      <trkpt lat="45.98412" lon="4.03603">
        <ele>329.34</ele>
        <time>2019-06-20T10:29:16Z</time>
      </trkpt>
      <trkpt lat="45.98425" lon="4.03585">
        <ele>331.39</ele>
        <time>2019-06-20T10:29:54Z</time>
      </trkpt>
      <trkpt lat="45.98419" lon="4.03559">
        <ele>331.19</ele>
        <time>2019-06-20T10:30:16Z</time>
      </trkpt>
      <trkpt lat="45.98414" lon="4.03533">
        <ele>331.12</ele>
        <time>2019-06-20T10:30:38Z</time>
      </trkpt>
      <trkpt lat="45.98408" lon="4.03508">
        <ele>330.92</ele>
        <time>2019-06-20T10:30:58Z</time>
      </trkpt>
      <trkpt lat="45.98408" lon="4.03482">
        <ele>330.47</ele>
        <time>2019-06-20T10:31:26Z</time>
      </trkpt>
      <trkpt lat="45.98419" lon="4.0346">
        <ele>332.05</ele>
        <time>2019-06-20T10:31:46Z</time>
      </trkpt>
      <trkpt lat="45.98428" lon="4.03434">
        <ele>332.3</ele>
        <time>2019-06-20T10:31:58Z</time>
      </trkpt>
      <trkpt lat="45.98427" lon="4.03407">
        <ele>331.83</ele>
        <time>2019-06-20T10:32:14Z</time>
      </trkpt>
      <trkpt lat="45.9841" lon="4.03394">
        <ele>332.8</ele>
        <time>2019-06-20T10:32:34Z</time>
      </trkpt>
      <trkpt lat="45.98392" lon="4.03383">
        <ele>331.29</ele>
        <time>2019-06-20T10:32:58Z</time>
      </trkpt>
      <trkpt lat="45.98385" lon="4.03358">
        <ele>329.92</ele>
        <time>2019-06-20T10:33:18Z</time>
      </trkpt>
      <trkpt lat="45.98395" lon="4.03333">
        <ele>330.01</ele>
        <time>2019-06-20T10:33:38Z</time>
      </trkpt>
      <trkpt lat="45.98404" lon="4.03308">
        <ele>330.31</ele>
        <time>2019-06-20T10:33:56Z</time>
      </trkpt>
      <trkpt lat="45.98417" lon="4.03288">
        <ele>330.35</ele>
        <time>2019-06-20T10:34:14Z</time>
      </trkpt>
      <trkpt lat="45.98431" lon="4.03267">
        <ele>331.83</ele>
        <time>2019-06-20T10:34:32Z</time>
      </trkpt>
      <trkpt lat="45.98436" lon="4.03241">
        <ele>329.91</ele>
        <time>2019-06-20T10:34:48Z</time>
      </trkpt>
      <trkpt lat="45.98418" lon="4.03232">
        <ele>330.15</ele>
        <time>2019-06-20T10:35:06Z</time>
      </trkpt>
      <trkpt lat="45.984" lon="4.03244">
        <ele>330.7</ele>
        <time>2019-06-20T10:35:24Z</time>
      </trkpt>
      <trkpt lat="45.98382" lon="4.03255">
        <ele>330.33</ele>
        <time>2019-06-20T10:35:40Z</time>
      </trkpt>
      <trkpt lat="45.98366" lon="4.03271">
        <ele>329.67</ele>
        <time>2019-06-20T10:35:56Z</time>
      </trkpt>
      <trkpt lat="45.98349" lon="4.03281">
        <ele>330.52</ele>
        <time>2019-06-20T10:36:14Z</time>
      </trkpt>
      <trkpt lat="45.98331" lon="4.03274">
        <ele>330.14</ele>
        <time>2019-06-20T10:36:34Z</time>
      </trkpt>
      <trkpt lat="45.98316" lon="4.0326">
        <ele>330.46</ele>
        <time>2019-06-20T10:36:50Z</time>
      </trkpt>
      <trkpt lat="45.98307" lon="4.03235">
        <ele>330.36</ele>
        <time>2019-06-20T10:37:08Z</time>
      </trkpt>
      <trkpt lat="45.98288" lon="4.03224">
        <ele>330.08</ele>
        <time>2019-06-20T10:37:26Z</time>
      </trkpt>
      <trkpt lat="45.98269" lon="4.0322">
        <ele>329.87</ele>
        <time>2019-06-20T10:37:44Z</time>
      </trkpt>
      <trkpt lat="45.98249" lon="4.03219">
        <ele>333.95</ele>
        <time>2019-06-20T10:37:56Z</time>
      </trkpt>
      <trkpt lat="45.9823" lon="4.03214">
        <ele>334.59</ele>
        <time>2019-06-20T10:38:12Z</time>
      </trkpt>
      <trkpt lat="45.9821" lon="4.03211">
        <ele>330.14</ele>
        <time>2019-06-20T10:38:26Z</time>
      </trkpt>
      <trkpt lat="45.98191" lon="4.03204">
        <ele>330.12</ele>
        <time>2019-06-20T10:38:42Z</time>
      </trkpt>
      <trkpt lat="45.98172" lon="4.03195">
        <ele>329.56</ele>
        <time>2019-06-20T10:38:58Z</time>
      </trkpt>
      <trkpt lat="45.98155" lon="4.03185">
        <ele>329.76</ele>
        <time>2019-06-20T10:39:14Z</time>
      </trkpt>
      <trkpt lat="45.98136" lon="4.03176">
        <ele>329.64</ele>
        <time>2019-06-20T10:39:30Z</time>
      </trkpt>
      <trkpt lat="45.98118" lon="4.03163">
        <ele>330.34</ele>
        <time>2019-06-20T10:39:46Z</time>
      </trkpt>
      <trkpt lat="45.98101" lon="4.03153">
        <ele>328.74</ele>
        <time>2019-06-20T10:40:05Z</time>
      </trkpt>
      <trkpt lat="45.98082" lon="4.0314">
        <ele>329.66</ele>
        <time>2019-06-20T10:40:25Z</time>
      </trkpt>
      <trkpt lat="45.98064" lon="4.03127">
        <ele>329.81</ele>
        <time>2019-06-20T10:40:41Z</time>
      </trkpt>
      <trkpt lat="45.98046" lon="4.03111">
        <ele>330.11</ele>
        <time>2019-06-20T10:40:57Z</time>
      </trkpt>
      <trkpt lat="45.98035" lon="4.03091">
        <ele>330.21</ele>
        <time>2019-06-20T10:41:13Z</time>
      </trkpt>
      <trkpt lat="45.98021" lon="4.0307">
        <ele>330.58</ele>
        <time>2019-06-20T10:41:31Z</time>
      </trkpt>
      <trkpt lat="45.98004" lon="4.03056">
        <ele>329.8</ele>
        <time>2019-06-20T10:41:49Z</time>
      </trkpt>
      <trkpt lat="45.97988" lon="4.03041">
        <ele>329.55</ele>
        <time>2019-06-20T10:42:07Z</time>
      </trkpt>
      <trkpt lat="45.97969" lon="4.03029">
        <ele>329.31</ele>
        <time>2019-06-20T10:42:27Z</time>
      </trkpt>
      <trkpt lat="45.97953" lon="4.03016">
        <ele>329.66</ele>
        <time>2019-06-20T10:42:43Z</time>
      </trkpt>
      <trkpt lat="45.97936" lon="4.03005">
        <ele>330.25</ele>
        <time>2019-06-20T10:43:03Z</time>
      </trkpt>
      <trkpt lat="45.9792" lon="4.0299">
        <ele>330.34</ele>
        <time>2019-06-20T10:43:17Z</time>
      </trkpt>
      <trkpt lat="45.97905" lon="4.02976">
        <ele>330.12</ele>
        <time>2019-06-20T10:43:31Z</time>
      </trkpt>
      <trkpt lat="45.97887" lon="4.02965">
        <ele>330.04</ele>
        <time>2019-06-20T10:43:53Z</time>
      </trkpt>
      <trkpt lat="45.97869" lon="4.02958">
        <ele>329.96</ele>
        <time>2019-06-20T10:44:07Z</time>
      </trkpt>
      <trkpt lat="45.97854" lon="4.02939">
        <ele>330.32</ele>
        <time>2019-06-20T10:44:23Z</time>
      </trkpt>
      <trkpt lat="45.97836" lon="4.02932">
        <ele>330.22</ele>
        <time>2019-06-20T10:44:35Z</time>
      </trkpt>
      <trkpt lat="45.97818" lon="4.02927">
        <ele>329.86</ele>
        <time>2019-06-20T10:44:55Z</time>
      </trkpt>
      <trkpt lat="45.978" lon="4.02921">
        <ele>329.66</ele>
        <time>2019-06-20T10:45:15Z</time>
      </trkpt>
      <trkpt lat="45.97781" lon="4.02912">
        <ele>329.94</ele>
        <time>2019-06-20T10:45:29Z</time>
      </trkpt>
      <trkpt lat="45.97764" lon="4.02899">
        <ele>330.42</ele>
        <time>2019-06-20T10:45:45Z</time>
      </trkpt>
      <trkpt lat="45.97745" lon="4.02893">
        <ele>330.3</ele>
        <time>2019-06-20T10:46:01Z</time>
      </trkpt>
      <trkpt lat="45.97727" lon="4.02883">
        <ele>330.24</ele>
        <time>2019-06-20T10:46:17Z</time>
      </trkpt>
      <trkpt lat="45.9771" lon="4.02871">
        <ele>330.68</ele>
        <time>2019-06-20T10:46:35Z</time>
      </trkpt>
      <trkpt lat="45.97693" lon="4.02855">
        <ele>330.56</ele>
        <time>2019-06-20T10:46:51Z</time>
      </trkpt>
      <trkpt lat="45.97674" lon="4.02844">
        <ele>330.56</ele>
        <time>2019-06-20T10:47:11Z</time>
      </trkpt>
      <trkpt lat="45.97657" lon="4.02858">
        <ele>330.65</ele>
        <time>2019-06-20T10:48:11Z</time>
      </trkpt>
      <trkpt lat="45.9764" lon="4.02868">
        <ele>331.31</ele>
        <time>2019-06-20T10:48:29Z</time>
      </trkpt>
      <trkpt lat="45.97621" lon="4.02862">
        <ele>331.67</ele>
        <time>2019-06-20T10:48:47Z</time>
      </trkpt>
      <trkpt lat="45.97603" lon="4.02848">
        <ele>331.58</ele>
        <time>2019-06-20T10:49:03Z</time>
      </trkpt>
      <trkpt lat="45.97586" lon="4.02836">
        <ele>331.72</ele>
        <time>2019-06-20T10:49:17Z</time>
      </trkpt>
      <trkpt lat="45.97573" lon="4.02815">
        <ele>330.99</ele>
        <time>2019-06-20T10:52:11Z</time>
      </trkpt>
      <trkpt lat="45.97561" lon="4.02795">
        <ele>331.02</ele>
        <time>2019-06-20T10:52:27Z</time>
      </trkpt>
      <trkpt lat="45.97544" lon="4.02783">
        <ele>331.02</ele>
        <time>2019-06-20T10:52:47Z</time>
      </trkpt>
      <trkpt lat="45.97528" lon="4.02768">
        <ele>331.04</ele>
        <time>2019-06-20T10:53:05Z</time>
      </trkpt>
      <trkpt lat="45.97514" lon="4.02748">
        <ele>330.85</ele>
        <time>2019-06-20T10:53:17Z</time>
      </trkpt>
      <trkpt lat="45.97502" lon="4.02728">
        <ele>331.15</ele>
        <time>2019-06-20T10:53:33Z</time>
      </trkpt>
      <trkpt lat="45.97493" lon="4.02701">
        <ele>331.07</ele>
        <time>2019-06-20T10:53:49Z</time>
      </trkpt>
      <trkpt lat="45.9748" lon="4.02681">
        <ele>331.02</ele>
        <time>2019-06-20T10:54:07Z</time>
      </trkpt>
      <trkpt lat="45.97469" lon="4.02659">
        <ele>331.03</ele>
        <time>2019-06-20T10:54:23Z</time>
      </trkpt>
      <trkpt lat="45.97462" lon="4.02635">
        <ele>332.07</ele>
        <time>2019-06-20T10:54:39Z</time>
      </trkpt>
      <trkpt lat="45.97463" lon="4.02608">
        <ele>331.34</ele>
        <time>2019-06-20T10:54:55Z</time>
      </trkpt>
      <trkpt lat="45.97468" lon="4.0258">
        <ele>330.79</ele>
        <time>2019-06-20T10:55:09Z</time>
      </trkpt>
      <trkpt lat="45.9746" lon="4.02554">
        <ele>330.57</ele>
        <time>2019-06-20T10:55:25Z</time>
      </trkpt>
      <trkpt lat="45.97455" lon="4.02526">
        <ele>330.83</ele>
        <time>2019-06-20T10:55:43Z</time>
      </trkpt>
      <trkpt lat="45.97459" lon="4.02498">
        <ele>330.99</ele>
        <time>2019-06-20T10:56:01Z</time>
      </trkpt>
      <trkpt lat="45.97466" lon="4.02474">
        <ele>331.56</ele>
        <time>2019-06-20T10:56:17Z</time>
      </trkpt>
      <trkpt lat="45.97478" lon="4.02452">
        <ele>331.72</ele>
        <time>2019-06-20T10:56:37Z</time>
      </trkpt>
      <trkpt lat="45.97495" lon="4.0244">
        <ele>331.34</ele>
        <time>2019-06-20T10:56:51Z</time>
      </trkpt>
      <trkpt lat="45.97509" lon="4.0242">
        <ele>331.32</ele>
        <time>2019-06-20T10:57:07Z</time>
      </trkpt>
      <trkpt lat="45.97518" lon="4.02396">
        <ele>331.84</ele>
        <time>2019-06-20T10:57:23Z</time>
      </trkpt>
      <trkpt lat="45.97532" lon="4.02374">
        <ele>331.37</ele>
        <time>2019-06-20T10:57:39Z</time>
      </trkpt>
      <trkpt lat="45.9755" lon="4.02364">
        <ele>331.63</ele>
        <time>2019-06-20T10:57:59Z</time>
      </trkpt>
      <trkpt lat="45.97559" lon="4.02339">
        <ele>331.62</ele>
        <time>2019-06-20T10:58:15Z</time>
      </trkpt>
      <trkpt lat="45.97569" lon="4.02316">
        <ele>331.61</ele>
        <time>2019-06-20T10:58:29Z</time>
      </trkpt>
      <trkpt lat="45.97587" lon="4.02309">
        <ele>331.53</ele>
        <time>2019-06-20T10:58:45Z</time>
      </trkpt>
      <trkpt lat="45.97605" lon="4.02309">
        <ele>331.11</ele>
        <time>2019-06-20T10:59:05Z</time>
      </trkpt>
      <trkpt lat="45.97618" lon="4.02327">
        <ele>332.36</ele>
        <time>2019-06-20T10:59:23Z</time>
      </trkpt>
      <trkpt lat="45.97628" lon="4.0235">
        <ele>336.7</ele>
        <time>2019-06-20T10:59:45Z</time>
      </trkpt>
      <trkpt lat="45.97641" lon="4.0237">
        <ele>339.71</ele>
        <time>2019-06-20T11:00:05Z</time>
      </trkpt>
      <trkpt lat="45.97645" lon="4.02398">
        <ele>341.93</ele>
        <time>2019-06-20T11:00:23Z</time>
      </trkpt>
      <trkpt lat="45.97649" lon="4.02424">
        <ele>345</ele>
        <time>2019-06-20T11:00:47Z</time>
      </trkpt>
      <trkpt lat="45.97652" lon="4.02451">
        <ele>346.97</ele>
        <time>2019-06-20T11:01:05Z</time>
      </trkpt>
      <trkpt lat="45.97657" lon="4.02476">
        <ele>348.63</ele>
        <time>2019-06-20T11:01:21Z</time>
      </trkpt>
      <trkpt lat="45.97662" lon="4.02503">
        <ele>350.92</ele>
        <time>2019-06-20T11:01:39Z</time>
      </trkpt>
      <trkpt lat="45.97661" lon="4.02529">
        <ele>352.85</ele>
        <time>2019-06-20T11:01:55Z</time>
      </trkpt>
      <trkpt lat="45.97666" lon="4.02554">
        <ele>355.78</ele>
        <time>2019-06-20T11:02:18Z</time>
      </trkpt>
      <trkpt lat="45.97678" lon="4.02575">
        <ele>359.71</ele>
        <time>2019-06-20T11:02:38Z</time>
      </trkpt>
      <trkpt lat="45.97684" lon="4.02601">
        <ele>360.88</ele>
        <time>2019-06-20T11:02:56Z</time>
      </trkpt>
      <trkpt lat="45.97693" lon="4.02626">
        <ele>362.92</ele>
        <time>2019-06-20T11:03:16Z</time>
      </trkpt>
      <trkpt lat="45.97706" lon="4.02645">
        <ele>363.37</ele>
        <time>2019-06-20T11:03:32Z</time>
      </trkpt>
      <trkpt lat="45.97722" lon="4.02655">
        <ele>364.09</ele>
        <time>2019-06-20T11:04:02Z</time>
      </trkpt>
      <trkpt lat="45.97742" lon="4.02654">
        <ele>365.53</ele>
        <time>2019-06-20T11:04:20Z</time>
      </trkpt>
      <trkpt lat="45.9776" lon="4.02643">
        <ele>367.36</ele>
        <time>2019-06-20T11:04:40Z</time>
      </trkpt>
      <trkpt lat="45.97779" lon="4.0264">
        <ele>369</ele>
        <time>2019-06-20T11:04:58Z</time>
      </trkpt>
      <trkpt lat="45.97797" lon="4.02639">
        <ele>370.79</ele>
        <time>2019-06-20T11:05:16Z</time>
      </trkpt>
      <trkpt lat="45.97816" lon="4.02644">
        <ele>372.03</ele>
        <time>2019-06-20T11:05:30Z</time>
      </trkpt>
      <trkpt lat="45.97835" lon="4.02642">
        <ele>372.6</ele>
        <time>2019-06-20T11:05:46Z</time>
      </trkpt>
      <trkpt lat="45.97854" lon="4.0264">
        <ele>373.35</ele>
        <time>2019-06-20T11:06:04Z</time>
      </trkpt>
      <trkpt lat="45.97873" lon="4.02636">
        <ele>374.46</ele>
        <time>2019-06-20T11:06:22Z</time>
      </trkpt>
      <trkpt lat="45.97891" lon="4.02625">
        <ele>376.04</ele>
        <time>2019-06-20T11:06:40Z</time>
      </trkpt>
      <trkpt lat="45.97909" lon="4.02618">
        <ele>377.45</ele>
        <time>2019-06-20T11:06:56Z</time>
      </trkpt>
      <trkpt lat="45.97927" lon="4.02611">
        <ele>379.3</ele>
        <time>2019-06-20T11:07:14Z</time>
        <extensions>
          <visugpx:TrkExtension xmlns:visugpx="https://www.visugpx.com/editgpx/">
            <visugpx:node>5</visugpx:node>
            </visugpx:TrkExtension>
        </extensions>
      </trkpt>
      <trkpt lat="45.97949" lon="4.02614">
        <ele>368.3</ele>
      </trkpt>
      <trkpt lat="45.97952" lon="4.0262">
        <ele>368.4</ele>
      </trkpt>
      <trkpt lat="45.98007" lon="4.02651">
        <ele>365.5</ele>
      </trkpt>
      <trkpt lat="45.98102" lon="4.02707">
        <ele>360.6</ele>
      </trkpt>
      <trkpt lat="45.98132" lon="4.02733">
        <ele>360.9</ele>
      </trkpt>
      <trkpt lat="45.98142" lon="4.02737">
        <ele>361.6</ele>
      </trkpt>
      <trkpt lat="45.98145" lon="4.0274">
        <ele>361.7</ele>
      </trkpt>
      <trkpt lat="45.98165" lon="4.02745">
        <ele>362.3</ele>
      </trkpt>
      <trkpt lat="45.9819" lon="4.02748">
        <ele>363.8</ele>
      </trkpt>
      <trkpt lat="45.98204" lon="4.02754">
        <ele>364</ele>
      </trkpt>
      <trkpt lat="45.9822" lon="4.0275">
        <ele>364.9</ele>
      </trkpt>
      <trkpt lat="45.98259" lon="4.02735">
        <ele>366.6</ele>
      </trkpt>
      <trkpt lat="45.98288" lon="4.02738">
        <ele>367.2</ele>
      </trkpt>
      <trkpt lat="45.98301" lon="4.02744">
        <ele>367.5</ele>
      </trkpt>
      <trkpt lat="45.98311" lon="4.02752">
        <ele>367.2</ele>
      </trkpt>
      <trkpt lat="45.98382" lon="4.02766">
        <ele>371.5</ele>
      </trkpt>
      <trkpt lat="45.98406" lon="4.02773">
        <ele>372.2</ele>
      </trkpt>
      <trkpt lat="45.98484" lon="4.02805">
        <ele>368.1</ele>
      </trkpt>
      <trkpt lat="45.98496" lon="4.02807">
        <ele>367.9</ele>
      </trkpt>
      <trkpt lat="45.98506" lon="4.02807">
        <ele>367</ele>
      </trkpt>
      <trkpt lat="45.98534" lon="4.0279">
        <ele>364.7</ele>
      </trkpt>
      <trkpt lat="45.98546" lon="4.02787">
        <ele>364</ele>
      </trkpt>
      <trkpt lat="45.98556" lon="4.02791">
        <ele>363.1</ele>
      </trkpt>
      <trkpt lat="45.98562" lon="4.02795">
        <ele>363</ele>
      </trkpt>
      <trkpt lat="45.98576" lon="4.02814">
        <ele>361.4</ele>
      </trkpt>
      <trkpt lat="45.9858" lon="4.02804">
        <ele>363</ele>
      </trkpt>
      <trkpt lat="45.98585" lon="4.02778">
        <ele>365.3</ele>
      </trkpt>
      <trkpt lat="45.98591" lon="4.02772">
        <ele>367.2</ele>
      </trkpt>
      <trkpt lat="45.98599" lon="4.02772">
        <ele>368.5</ele>
      </trkpt>
      <trkpt lat="45.98615" lon="4.02781">
        <ele>370.4</ele>
      </trkpt>
      <trkpt lat="45.98626" lon="4.02786">
        <ele>371.5</ele>
        <extensions>
          <visugpx:TrkExtension xmlns:visugpx="https://www.visugpx.com/editgpx/">
            <visugpx:node>6</visugpx:node>
            </visugpx:TrkExtension>
        </extensions>
      </trkpt>
      <trkpt lat="45.98647" lon="4.02796">
        <ele>373.1</ele>
      </trkpt>
      <trkpt lat="45.9866" lon="4.02723">
        <ele>381.5</ele>
      </trkpt>
      <trkpt lat="45.98661" lon="4.02707">
        <ele>384.3</ele>
      </trkpt>
      <trkpt lat="45.98659" lon="4.02682">
        <ele>388.2</ele>
      </trkpt>
      <trkpt lat="45.98657" lon="4.0268">
        <ele>388.4</ele>
        <extensions>
          <visugpx:TrkExtension xmlns:visugpx="https://www.visugpx.com/editgpx/">
            <visugpx:node>7</visugpx:node>
            </visugpx:TrkExtension>
        </extensions>
      </trkpt>
      <trkpt lat="45.98655" lon="4.02656">
        <ele>406.02</ele>
        <time>2019-06-20T11:19:14Z</time>
      </trkpt>
      <trkpt lat="45.98674" lon="4.02656">
        <ele>405.47</ele>
        <time>2019-06-20T11:19:32Z</time>
      </trkpt>
      <trkpt lat="45.98693" lon="4.02655">
        <ele>404.8</ele>
        <time>2019-06-20T11:19:44Z</time>
      </trkpt>
      <trkpt lat="45.98711" lon="4.0265">
        <ele>404.64</ele>
        <time>2019-06-20T11:19:56Z</time>
      </trkpt>
      <trkpt lat="45.9873" lon="4.02655">
        <ele>403.91</ele>
        <time>2019-06-20T11:20:12Z</time>
      </trkpt>
      <trkpt lat="45.9875" lon="4.02659">
        <ele>402.22</ele>
        <time>2019-06-20T11:20:34Z</time>
      </trkpt>
      <trkpt lat="45.98768" lon="4.02653">
        <ele>403.75</ele>
        <time>2019-06-20T11:20:48Z</time>
      </trkpt>
      <trkpt lat="45.98786" lon="4.02649">
        <ele>403.09</ele>
        <time>2019-06-20T11:21:00Z</time>
      </trkpt>
      <trkpt lat="45.98804" lon="4.02654">
        <ele>402.22</ele>
        <time>2019-06-20T11:21:18Z</time>
      </trkpt>
      <trkpt lat="45.98824" lon="4.02649">
        <ele>402.09</ele>
        <time>2019-06-20T11:21:38Z</time>
      </trkpt>
      <trkpt lat="45.98842" lon="4.02642">
        <ele>402.31</ele>
        <time>2019-06-20T11:21:52Z</time>
      </trkpt>
      <trkpt lat="45.98862" lon="4.02639">
        <ele>401.35</ele>
        <time>2019-06-20T11:22:08Z</time>
      </trkpt>
      <trkpt lat="45.98881" lon="4.0264">
        <ele>401.33</ele>
        <time>2019-06-20T11:22:18Z</time>
      </trkpt>
      <trkpt lat="45.98904" lon="4.02637">
        <ele>401.16</ele>
        <time>2019-06-20T11:22:40Z</time>
      </trkpt>
      <trkpt lat="45.98923" lon="4.02631">
        <ele>400.28</ele>
        <time>2019-06-20T11:22:56Z</time>
      </trkpt>
      <trkpt lat="45.9894" lon="4.02623">
        <ele>399.88</ele>
        <time>2019-06-20T11:23:10Z</time>
      </trkpt>
      <trkpt lat="45.98958" lon="4.02619">
        <ele>399.47</ele>
        <time>2019-06-20T11:23:28Z</time>
      </trkpt>
      <trkpt lat="45.98977" lon="4.02613">
        <ele>399.27</ele>
        <time>2019-06-20T11:23:42Z</time>
      </trkpt>
      <trkpt lat="45.98994" lon="4.02598">
        <ele>399.61</ele>
        <time>2019-06-20T11:23:58Z</time>
      </trkpt>
      <trkpt lat="45.9901" lon="4.02583">
        <ele>400.31</ele>
        <time>2019-06-20T11:25:10Z</time>
      </trkpt>
      <trkpt lat="45.99017" lon="4.02558">
        <ele>400.76</ele>
        <time>2019-06-20T11:25:28Z</time>
      </trkpt>
      <trkpt lat="45.9902" lon="4.0253">
        <ele>401.95</ele>
        <time>2019-06-20T11:25:52Z</time>
      </trkpt>
      <trkpt lat="45.99027" lon="4.02506">
        <ele>401.82</ele>
        <time>2019-06-20T11:27:12Z</time>
      </trkpt>
      <trkpt lat="45.99023" lon="4.0248">
        <ele>402.73</ele>
        <time>2019-06-20T11:27:54Z</time>
      </trkpt>
      <trkpt lat="45.99017" lon="4.02452">
        <ele>403.99</ele>
        <time>2019-06-20T11:28:14Z</time>
      </trkpt>
      <trkpt lat="45.99017" lon="4.02424">
        <ele>404.31</ele>
        <time>2019-06-20T11:28:30Z</time>
      </trkpt>
      <trkpt lat="45.99014" lon="4.02397">
        <ele>405.57</ele>
        <time>2019-06-20T11:28:46Z</time>
      </trkpt>
      <trkpt lat="45.9901" lon="4.02369">
        <ele>405.37</ele>
        <time>2019-06-20T11:28:58Z</time>
      </trkpt>
      <trkpt lat="45.99003" lon="4.02345">
        <ele>405.82</ele>
        <time>2019-06-20T11:29:14Z</time>
      </trkpt>
      <trkpt lat="45.98994" lon="4.02318">
        <ele>406.97</ele>
        <time>2019-06-20T11:29:36Z</time>
      </trkpt>
      <trkpt lat="45.98977" lon="4.02304">
        <ele>408.71</ele>
        <time>2019-06-20T11:29:54Z</time>
      </trkpt>
      <trkpt lat="45.98962" lon="4.02289">
        <ele>410.78</ele>
        <time>2019-06-20T11:30:14Z</time>
      </trkpt>
      <trkpt lat="45.9895" lon="4.02268">
        <ele>411.37</ele>
        <time>2019-06-20T11:30:34Z</time>
      </trkpt>
      <trkpt lat="45.98938" lon="4.02248">
        <ele>412.73</ele>
        <time>2019-06-20T11:30:50Z</time>
      </trkpt>
      <trkpt lat="45.98924" lon="4.02229">
        <ele>414.93</ele>
        <time>2019-06-20T11:31:08Z</time>
      </trkpt>
      <trkpt lat="45.98912" lon="4.0221">
        <ele>416.11</ele>
        <time>2019-06-20T11:31:24Z</time>
      </trkpt>
      <trkpt lat="45.98899" lon="4.02188">
        <ele>417.91</ele>
        <time>2019-06-20T11:31:42Z</time>
      </trkpt>
      <trkpt lat="45.9889" lon="4.02162">
        <ele>419.62</ele>
        <time>2019-06-20T11:31:54Z</time>
      </trkpt>
      <trkpt lat="45.98877" lon="4.02139">
        <ele>420.41</ele>
        <time>2019-06-20T11:32:14Z</time>
      </trkpt>
      <trkpt lat="45.98864" lon="4.0212">
        <ele>421.32</ele>
        <time>2019-06-20T11:32:34Z</time>
      </trkpt>
      <trkpt lat="45.98856" lon="4.02093">
        <ele>424.27</ele>
        <time>2019-06-20T11:32:52Z</time>
      </trkpt>
      <trkpt lat="45.98843" lon="4.02073">
        <ele>425.36</ele>
        <time>2019-06-20T11:33:12Z</time>
      </trkpt>
      <trkpt lat="45.98833" lon="4.0205">
        <ele>426.51</ele>
        <time>2019-06-20T11:33:28Z</time>
      </trkpt>
      <trkpt lat="45.98821" lon="4.02028">
        <ele>427.62</ele>
        <time>2019-06-20T11:33:48Z</time>
      </trkpt>
      <trkpt lat="45.98813" lon="4.02003">
        <ele>429.02</ele>
        <time>2019-06-20T11:34:22Z</time>
      </trkpt>
      <trkpt lat="45.98801" lon="4.01981">
        <ele>421.43</ele>
        <time>2019-06-20T11:34:38Z</time>
      </trkpt>
      <trkpt lat="45.98788" lon="4.01962">
        <ele>428.87</ele>
        <time>2019-06-20T11:34:52Z</time>
      </trkpt>
      <trkpt lat="45.98776" lon="4.01937">
        <ele>433.24</ele>
        <time>2019-06-20T11:35:10Z</time>
      </trkpt>
      <trkpt lat="45.98768" lon="4.01912">
        <ele>430.53</ele>
        <time>2019-06-20T11:35:28Z</time>
      </trkpt>
      <trkpt lat="45.98754" lon="4.01893">
        <ele>430.88</ele>
        <time>2019-06-20T11:35:46Z</time>
      </trkpt>
      <trkpt lat="45.98742" lon="4.01867">
        <ele>430.55</ele>
        <time>2019-06-20T11:36:00Z</time>
      </trkpt>
      <trkpt lat="45.98731" lon="4.01845">
        <ele>429.9</ele>
        <time>2019-06-20T11:36:18Z</time>
      </trkpt>
      <trkpt lat="45.98719" lon="4.01823">
        <ele>430.02</ele>
        <time>2019-06-20T11:36:34Z</time>
      </trkpt>
      <trkpt lat="45.98708" lon="4.018">
        <ele>429.8</ele>
        <time>2019-06-20T11:36:52Z</time>
      </trkpt>
      <trkpt lat="45.98696" lon="4.01779">
        <ele>429.83</ele>
        <time>2019-06-20T11:37:08Z</time>
      </trkpt>
      <trkpt lat="45.98686" lon="4.01757">
        <ele>429.98</ele>
        <time>2019-06-20T11:37:20Z</time>
      </trkpt>
      <trkpt lat="45.98673" lon="4.01736">
        <ele>430.39</ele>
        <time>2019-06-20T11:40:26Z</time>
      </trkpt>
      <trkpt lat="45.98663" lon="4.01711">
        <ele>429.73</ele>
        <time>2019-06-20T11:40:46Z</time>
      </trkpt>
      <trkpt lat="45.98649" lon="4.0169">
        <ele>429.65</ele>
        <time>2019-06-20T11:40:58Z</time>
      </trkpt>
      <trkpt lat="45.98635" lon="4.01671">
        <ele>429.3</ele>
        <time>2019-06-20T11:41:18Z</time>
      </trkpt>
      <trkpt lat="45.98621" lon="4.0165">
        <ele>428.73</ele>
        <time>2019-06-20T11:41:36Z</time>
      </trkpt>
      <trkpt lat="45.98606" lon="4.01631">
        <ele>428.15</ele>
        <time>2019-06-20T11:41:50Z</time>
      </trkpt>
      <trkpt lat="45.98595" lon="4.01606">
        <ele>426.91</ele>
        <time>2019-06-20T11:42:10Z</time>
      </trkpt>
      <trkpt lat="45.98582" lon="4.01587">
        <ele>426.33</ele>
        <time>2019-06-20T11:42:22Z</time>
      </trkpt>
      <trkpt lat="45.98569" lon="4.01564">
        <ele>424.96</ele>
        <time>2019-06-20T11:42:38Z</time>
      </trkpt>
      <trkpt lat="45.98556" lon="4.01542">
        <ele>423.82</ele>
        <time>2019-06-20T11:42:56Z</time>
      </trkpt>
      <trkpt lat="45.98547" lon="4.01516">
        <ele>422.91</ele>
        <time>2019-06-20T11:43:12Z</time>
      </trkpt>
      <trkpt lat="45.98539" lon="4.0149">
        <ele>421.88</ele>
        <time>2019-06-20T11:43:26Z</time>
      </trkpt>
      <trkpt lat="45.98529" lon="4.01467">
        <ele>420.43</ele>
        <time>2019-06-20T11:43:48Z</time>
      </trkpt>
      <trkpt lat="45.98518" lon="4.01442">
        <ele>419.45</ele>
        <time>2019-06-20T11:44:04Z</time>
      </trkpt>
      <trkpt lat="45.98512" lon="4.01417">
        <ele>418.37</ele>
        <time>2019-06-20T11:44:20Z</time>
      </trkpt>
      <trkpt lat="45.9851" lon="4.01391">
        <ele>417.81</ele>
        <time>2019-06-20T11:44:30Z</time>
      </trkpt>
      <trkpt lat="45.98508" lon="4.0136">
        <ele>416.13</ele>
        <time>2019-06-20T11:44:50Z</time>
      </trkpt>
      <trkpt lat="45.98503" lon="4.01333">
        <ele>414.3</ele>
        <time>2019-06-20T11:45:08Z</time>
      </trkpt>
      <trkpt lat="45.985" lon="4.01306">
        <ele>412.51</ele>
        <time>2019-06-20T11:45:22Z</time>
      </trkpt>
      <trkpt lat="45.98494" lon="4.0128">
        <ele>410.46</ele>
        <time>2019-06-20T11:45:40Z</time>
      </trkpt>
      <trkpt lat="45.98496" lon="4.01253">
        <ele>397.94</ele>
        <time>2019-06-20T11:46:15Z</time>
      </trkpt>
      <trkpt lat="45.98498" lon="4.01227">
        <ele>405.51</ele>
        <time>2019-06-20T11:46:27Z</time>
      </trkpt>
      <trkpt lat="45.98502" lon="4.01199">
        <ele>402.3</ele>
        <time>2019-06-20T11:46:45Z</time>
      </trkpt>
      <trkpt lat="45.98509" lon="4.01174">
        <ele>400.28</ele>
        <time>2019-06-20T11:46:59Z</time>
      </trkpt>
      <trkpt lat="45.98517" lon="4.01146">
        <ele>397.22</ele>
        <time>2019-06-20T11:47:17Z</time>
      </trkpt>
      <trkpt lat="45.98522" lon="4.0112">
        <ele>394.75</ele>
        <time>2019-06-20T11:47:33Z</time>
      </trkpt>
      <trkpt lat="45.98511" lon="4.01097">
        <ele>393.97</ele>
        <time>2019-06-20T11:47:49Z</time>
      </trkpt>
      <trkpt lat="45.98505" lon="4.01072">
        <ele>393.09</ele>
        <time>2019-06-20T11:48:03Z</time>
      </trkpt>
      <trkpt lat="45.98494" lon="4.01049">
        <ele>390.22</ele>
        <time>2019-06-20T11:48:25Z</time>
      </trkpt>
      <trkpt lat="45.98479" lon="4.01034">
        <ele>389.23</ele>
        <time>2019-06-20T11:48:33Z</time>
      </trkpt>
      <trkpt lat="45.98464" lon="4.01017">
        <ele>386.14</ele>
        <time>2019-06-20T11:49:13Z</time>
      </trkpt>
      <trkpt lat="45.98446" lon="4.01008">
        <ele>384.62</ele>
        <time>2019-06-20T11:49:29Z</time>
      </trkpt>
      <trkpt lat="45.98427" lon="4.00999">
        <ele>380.78</ele>
        <time>2019-06-20T11:49:51Z</time>
      </trkpt>
      <trkpt lat="45.98409" lon="4.00994">
        <ele>379.37</ele>
        <time>2019-06-20T11:50:07Z</time>
      </trkpt>
      <trkpt lat="45.9839" lon="4.00992">
        <ele>377.51</ele>
        <time>2019-06-20T11:50:23Z</time>
      </trkpt>
      <trkpt lat="45.9837" lon="4.00989">
        <ele>375.36</ele>
        <time>2019-06-20T11:50:41Z</time>
      </trkpt>
      <trkpt lat="45.98369" lon="4.00963">
        <ele>384.05</ele>
        <time>2019-06-20T11:51:53Z</time>
      </trkpt>
      <trkpt lat="45.98376" lon="4.00937">
        <ele>394.52</ele>
        <time>2019-06-20T11:52:43Z</time>
      </trkpt>
      <trkpt lat="45.98385" lon="4.00914">
        <ele>399.74</ele>
        <time>2019-06-20T11:53:31Z</time>
      </trkpt>
      <trkpt lat="45.98398" lon="4.00894">
        <ele>405</ele>
        <time>2019-06-20T11:54:15Z</time>
      </trkpt>
      <trkpt lat="45.9841" lon="4.00872">
        <ele>408.34</ele>
        <time>2019-06-20T11:54:35Z</time>
      </trkpt>
      <trkpt lat="45.9842" lon="4.0085">
        <ele>408.11</ele>
        <time>2019-06-20T11:54:53Z</time>
      </trkpt>
      <trkpt lat="45.98434" lon="4.00831">
        <ele>409.75</ele>
        <time>2019-06-20T11:55:11Z</time>
      </trkpt>
      <trkpt lat="45.98446" lon="4.00809">
        <ele>410.62</ele>
        <time>2019-06-20T11:55:27Z</time>
      </trkpt>
      <trkpt lat="45.98457" lon="4.00784">
        <ele>411.46</ele>
        <time>2019-06-20T11:55:47Z</time>
      </trkpt>
      <trkpt lat="45.98467" lon="4.00761">
        <ele>411.92</ele>
        <time>2019-06-20T11:56:03Z</time>
      </trkpt>
      <trkpt lat="45.98474" lon="4.00737">
        <ele>412.14</ele>
        <time>2019-06-20T11:56:21Z</time>
      </trkpt>
      <trkpt lat="45.98481" lon="4.00711">
        <ele>411.16</ele>
        <time>2019-06-20T12:00:17Z</time>
      </trkpt>
      <trkpt lat="45.98467" lon="4.00692">
        <ele>410.61</ele>
        <time>2019-06-20T12:00:41Z</time>
      </trkpt>
      <trkpt lat="45.98453" lon="4.00674">
        <ele>410.11</ele>
        <time>2019-06-20T12:00:59Z</time>
      </trkpt>
      <trkpt lat="45.98439" lon="4.00658">
        <ele>408.58</ele>
        <time>2019-06-20T12:01:13Z</time>
      </trkpt>
      <trkpt lat="45.98422" lon="4.00643">
        <ele>406.65</ele>
        <time>2019-06-20T12:01:31Z</time>
      </trkpt>
      <trkpt lat="45.9841" lon="4.00623">
        <ele>404.73</ele>
        <time>2019-06-20T12:01:47Z</time>
      </trkpt>
      <trkpt lat="45.98392" lon="4.00611">
        <ele>402.73</ele>
        <time>2019-06-20T12:02:05Z</time>
      </trkpt>
      <trkpt lat="45.98376" lon="4.00595">
        <ele>400.29</ele>
        <time>2019-06-20T12:02:27Z</time>
      </trkpt>
      <trkpt lat="45.9836" lon="4.0058">
        <ele>397.23</ele>
        <time>2019-06-20T12:02:47Z</time>
      </trkpt>
      <trkpt lat="45.9836" lon="4.00553">
        <ele>393.14</ele>
        <time>2019-06-20T12:03:09Z</time>
      </trkpt>
      <trkpt lat="45.98373" lon="4.00535">
        <ele>389.29</ele>
        <time>2019-06-20T12:03:35Z</time>
      </trkpt>
      <trkpt lat="45.98388" lon="4.00517">
        <ele>388.48</ele>
        <time>2019-06-20T12:03:51Z</time>
      </trkpt>
      <trkpt lat="45.98396" lon="4.00493">
        <ele>387.93</ele>
        <time>2019-06-20T12:04:05Z</time>
      </trkpt>
      <trkpt lat="45.98391" lon="4.00467">
        <ele>386.3</ele>
        <time>2019-06-20T12:04:19Z</time>
      </trkpt>
      <trkpt lat="45.98383" lon="4.00444">
        <ele>383.85</ele>
        <time>2019-06-20T12:04:37Z</time>
      </trkpt>
      <trkpt lat="45.98372" lon="4.00422">
        <ele>380.52</ele>
        <time>2019-06-20T12:04:59Z</time>
      </trkpt>
      <trkpt lat="45.98358" lon="4.00404">
        <ele>378.63</ele>
        <time>2019-06-20T12:05:13Z</time>
      </trkpt>
      <trkpt lat="45.98344" lon="4.00384">
        <ele>376.09</ele>
        <time>2019-06-20T12:05:27Z</time>
      </trkpt>
      <trkpt lat="45.98331" lon="4.00365">
        <ele>371.91</ele>
        <time>2019-06-20T12:05:47Z</time>
      </trkpt>
      <trkpt lat="45.98313" lon="4.00368">
        <ele>367.15</ele>
        <time>2019-06-20T12:06:11Z</time>
      </trkpt>
      <trkpt lat="45.98296" lon="4.00359">
        <ele>358.95</ele>
        <time>2019-06-20T12:06:51Z</time>
      </trkpt>
      <trkpt lat="45.98278" lon="4.00346">
        <ele>355.51</ele>
        <time>2019-06-20T12:07:09Z</time>
      </trkpt>
      <trkpt lat="45.98271" lon="4.00374">
        <ele>351.92</ele>
        <time>2019-06-20T12:07:29Z</time>
      </trkpt>
      <trkpt lat="45.98277" lon="4.00401">
        <ele>348.9</ele>
        <time>2019-06-20T12:07:47Z</time>
      </trkpt>
      <trkpt lat="45.98259" lon="4.00409">
        <ele>340.96</ele>
        <time>2019-06-20T12:08:25Z</time>
      </trkpt>
      <trkpt lat="45.9824" lon="4.00402">
        <ele>336.54</ele>
        <time>2019-06-20T12:08:49Z</time>
      </trkpt>
      <trkpt lat="45.98228" lon="4.00383">
        <ele>334.12</ele>
        <time>2019-06-20T12:09:13Z</time>
      </trkpt>
      <trkpt lat="45.9822" lon="4.00359">
        <ele>334.25</ele>
        <time>2019-06-20T12:09:33Z</time>
      </trkpt>
      <trkpt lat="45.98216" lon="4.00332">
        <ele>334.29</ele>
        <time>2019-06-20T12:09:49Z</time>
      </trkpt>
      <trkpt lat="45.98216" lon="4.00303">
        <ele>334.3</ele>
        <time>2019-06-20T12:10:05Z</time>
      </trkpt>
      <trkpt lat="45.98219" lon="4.00276">
        <ele>335.4</ele>
        <time>2019-06-20T12:10:31Z</time>
      </trkpt>
      <trkpt lat="45.98227" lon="4.00249">
        <ele>335.31</ele>
        <time>2019-06-20T12:10:55Z</time>
      </trkpt>
      <trkpt lat="45.98239" lon="4.00228">
        <ele>335.24</ele>
        <time>2019-06-20T12:11:09Z</time>
      </trkpt>
      <trkpt lat="45.98258" lon="4.0021">
        <ele>336.46</ele>
        <time>2019-06-20T12:11:38Z</time>
      </trkpt>
      <trkpt lat="45.98272" lon="4.00194">
        <ele>336.23</ele>
        <time>2019-06-20T12:12:12Z</time>
      </trkpt>
      <trkpt lat="45.98275" lon="4.00167">
        <ele>336.71</ele>
        <time>2019-06-20T12:12:32Z</time>
      </trkpt>
      <trkpt lat="45.98277" lon="4.00139">
        <ele>337.04</ele>
        <time>2019-06-20T12:12:52Z</time>
      </trkpt>
      <trkpt lat="45.98277" lon="4.00109">
        <ele>337.41</ele>
        <time>2019-06-20T12:13:10Z</time>
      </trkpt>
      <trkpt lat="45.98273" lon="4.00082">
        <ele>337.93</ele>
        <time>2019-06-20T12:13:28Z</time>
      </trkpt>
      <trkpt lat="45.98283" lon="4.00058">
        <ele>337.92</ele>
        <time>2019-06-20T12:13:44Z</time>
      </trkpt>
      <trkpt lat="45.98294" lon="4.00038">
        <ele>339.05</ele>
        <time>2019-06-20T12:14:14Z</time>
      </trkpt>
      <trkpt lat="45.98308" lon="4.00021">
        <ele>339.35</ele>
        <time>2019-06-20T12:14:30Z</time>
      </trkpt>
      <trkpt lat="45.9832" lon="3.99998">
        <ele>339.79</ele>
        <time>2019-06-20T12:14:42Z</time>
      </trkpt>
      <trkpt lat="45.98319" lon="3.9997">
        <ele>340.09</ele>
        <time>2019-06-20T12:14:58Z</time>
      </trkpt>
      <trkpt lat="45.98309" lon="3.99946">
        <ele>340.31</ele>
        <time>2019-06-20T12:15:18Z</time>
      </trkpt>
      <trkpt lat="45.98296" lon="3.99926">
        <ele>341.54</ele>
        <time>2019-06-20T12:15:46Z</time>
      </trkpt>
      <trkpt lat="45.98289" lon="3.99899">
        <ele>343.01</ele>
        <time>2019-06-20T12:16:06Z</time>
      </trkpt>
      <trkpt lat="45.98277" lon="3.99879">
        <ele>345.23</ele>
        <time>2019-06-20T12:16:24Z</time>
      </trkpt>
      <trkpt lat="45.98276" lon="3.99853">
        <ele>350.49</ele>
        <time>2019-06-20T12:16:56Z</time>
      </trkpt>
      <trkpt lat="45.98295" lon="3.99847">
        <ele>355.22</ele>
        <time>2019-06-20T12:17:18Z</time>
      </trkpt>
      <trkpt lat="45.98312" lon="3.99835">
        <ele>351.34</ele>
        <time>2019-06-20T12:17:40Z</time>
      </trkpt>
      <trkpt lat="45.98325" lon="3.99818">
        <ele>348.62</ele>
        <time>2019-06-20T12:18:08Z</time>
      </trkpt>
      <trkpt lat="45.98333" lon="3.99792">
        <ele>348.28</ele>
        <time>2019-06-20T12:18:24Z</time>
      </trkpt>
      <trkpt lat="45.98341" lon="3.9977">
        <ele>347.71</ele>
        <time>2019-06-20T12:18:40Z</time>
      </trkpt>
      <trkpt lat="45.98353" lon="3.99747">
        <ele>349.29</ele>
        <time>2019-06-20T12:18:56Z</time>
      </trkpt>
      <trkpt lat="45.9836" lon="3.99722">
        <ele>349.99</ele>
        <time>2019-06-20T12:19:14Z</time>
      </trkpt>
      <trkpt lat="45.98359" lon="3.99693">
        <ele>349.4</ele>
        <time>2019-06-20T12:19:30Z</time>
      </trkpt>
      <trkpt lat="45.9836" lon="3.99664">
        <ele>350.17</ele>
        <time>2019-06-20T12:19:44Z</time>
      </trkpt>
      <trkpt lat="45.98342" lon="3.99648">
        <ele>347.02</ele>
        <time>2019-06-20T12:20:00Z</time>
      </trkpt>
      <trkpt lat="45.98331" lon="3.99626">
        <ele>346.74</ele>
        <time>2019-06-20T12:20:14Z</time>
      </trkpt>
      <trkpt lat="45.98326" lon="3.99596">
        <ele>347.23</ele>
        <time>2019-06-20T12:20:30Z</time>
      </trkpt>
      <trkpt lat="45.98318" lon="3.99571">
        <ele>348.62</ele>
        <time>2019-06-20T12:20:50Z</time>
      </trkpt>
      <trkpt lat="45.98308" lon="3.99547">
        <ele>349</ele>
        <time>2019-06-20T12:21:04Z</time>
      </trkpt>
      <trkpt lat="45.98301" lon="3.99523">
        <ele>347.94</ele>
        <time>2019-06-20T12:21:24Z</time>
      </trkpt>
      <trkpt lat="45.98295" lon="3.99496">
        <ele>350.17</ele>
        <time>2019-06-20T12:21:40Z</time>
      </trkpt>
      <trkpt lat="45.98278" lon="3.99481">
        <ele>349.44</ele>
        <time>2019-06-20T12:22:20Z</time>
      </trkpt>
      <trkpt lat="45.9826" lon="3.99482">
        <ele>351.56</ele>
        <time>2019-06-20T12:22:38Z</time>
      </trkpt>
      <trkpt lat="45.98242" lon="3.99491">
        <ele>360.33</ele>
        <time>2019-06-20T12:23:32Z</time>
      </trkpt>
      <trkpt lat="45.98224" lon="3.99489">
        <ele>365.74</ele>
        <time>2019-06-20T12:24:00Z</time>
      </trkpt>
      <trkpt lat="45.98207" lon="3.99497">
        <ele>368.06</ele>
        <time>2019-06-20T12:24:18Z</time>
      </trkpt>
      <trkpt lat="45.98187" lon="3.99499">
        <ele>366.55</ele>
        <time>2019-06-20T12:24:30Z</time>
      </trkpt>
      <trkpt lat="45.98169" lon="3.9951">
        <ele>369.76</ele>
        <time>2019-06-20T12:24:54Z</time>
      </trkpt>
      <trkpt lat="45.9815" lon="3.99511">
        <ele>370.81</ele>
        <time>2019-06-20T12:25:06Z</time>
      </trkpt>
      <trkpt lat="45.98131" lon="3.99511">
        <ele>372.56</ele>
        <time>2019-06-20T12:25:26Z</time>
      </trkpt>
      <trkpt lat="45.98112" lon="3.99517">
        <ele>373.81</ele>
        <time>2019-06-20T12:25:48Z</time>
      </trkpt>
      <trkpt lat="45.98092" lon="3.99516">
        <ele>375</ele>
        <time>2019-06-20T12:26:06Z</time>
      </trkpt>
      <trkpt lat="45.98072" lon="3.99519">
        <ele>376.34</ele>
        <time>2019-06-20T12:26:28Z</time>
      </trkpt>
      <trkpt lat="45.98053" lon="3.99521">
        <ele>376.95</ele>
        <time>2019-06-20T12:26:46Z</time>
      </trkpt>
      <trkpt lat="45.98034" lon="3.99525">
        <ele>378.61</ele>
        <time>2019-06-20T12:27:08Z</time>
      </trkpt>
      <trkpt lat="45.98016" lon="3.99523">
        <ele>379.63</ele>
        <time>2019-06-20T12:27:30Z</time>
      </trkpt>
      <trkpt lat="45.97997" lon="3.99522">
        <ele>380.96</ele>
        <time>2019-06-20T12:27:52Z</time>
      </trkpt>
      <trkpt lat="45.97979" lon="3.99524">
        <ele>381.99</ele>
        <time>2019-06-20T12:28:08Z</time>
      </trkpt>
      <trkpt lat="45.97961" lon="3.99524">
        <ele>381.28</ele>
        <time>2019-06-20T12:28:20Z</time>
      </trkpt>
      <trkpt lat="45.97942" lon="3.99528">
        <ele>384.06</ele>
        <time>2019-06-20T12:28:46Z</time>
      </trkpt>
      <trkpt lat="45.9794" lon="3.99554">
        <ele>383.75</ele>
        <time>2019-06-20T12:29:02Z</time>
      </trkpt>
      <trkpt lat="45.9794" lon="3.99581">
        <ele>383.23</ele>
        <time>2019-06-20T12:29:18Z</time>
      </trkpt>
      <trkpt lat="45.97946" lon="3.99609">
        <ele>382.55</ele>
        <time>2019-06-20T12:29:34Z</time>
      </trkpt>
      <trkpt lat="45.97954" lon="3.99634">
        <ele>381.56</ele>
        <time>2019-06-20T12:29:52Z</time>
      </trkpt>
      <trkpt lat="45.97961" lon="3.99659">
        <ele>381.99</ele>
        <time>2019-06-20T12:30:02Z</time>
      </trkpt>
      <trkpt lat="45.9797" lon="3.99685">
        <ele>381.13</ele>
        <time>2019-06-20T12:30:20Z</time>
      </trkpt>
      <trkpt lat="45.97978" lon="3.9971">
        <ele>380.17</ele>
        <time>2019-06-20T12:30:40Z</time>
      </trkpt>
      <trkpt lat="45.97982" lon="3.99735">
        <ele>380.93</ele>
        <time>2019-06-20T12:30:52Z</time>
      </trkpt>
      <trkpt lat="45.97983" lon="3.99763">
        <ele>380.64</ele>
        <time>2019-06-20T12:31:10Z</time>
      </trkpt>
      <trkpt lat="45.97979" lon="3.99791">
        <ele>380.69</ele>
        <time>2019-06-20T12:31:26Z</time>
      </trkpt>
      <trkpt lat="45.97974" lon="3.99818">
        <ele>382.03</ele>
        <time>2019-06-20T12:31:44Z</time>
      </trkpt>
      <trkpt lat="45.97974" lon="3.99846">
        <ele>383.07</ele>
        <time>2019-06-20T12:32:02Z</time>
      </trkpt>
      <trkpt lat="45.97974" lon="3.99873">
        <ele>383.07</ele>
        <time>2019-06-20T12:32:16Z</time>
      </trkpt>
      <trkpt lat="45.97973" lon="3.99902">
        <ele>383.86</ele>
        <time>2019-06-20T12:32:34Z</time>
      </trkpt>
      <trkpt lat="45.97971" lon="3.9993">
        <ele>384.19</ele>
        <time>2019-06-20T12:32:50Z</time>
      </trkpt>
      <trkpt lat="45.97971" lon="3.99956">
        <ele>384.52</ele>
        <time>2019-06-20T12:33:06Z</time>
      </trkpt>
      <trkpt lat="45.97972" lon="3.99983">
        <ele>386.45</ele>
        <time>2019-06-20T12:33:24Z</time>
      </trkpt>
      <trkpt lat="45.97963" lon="4.00006">
        <ele>382.49</ele>
        <time>2019-06-20T12:34:06Z</time>
      </trkpt>
      <trkpt lat="45.97945" lon="3.99993">
        <ele>386.84</ele>
        <time>2019-06-20T12:34:24Z</time>
      </trkpt>
      <trkpt lat="45.97925" lon="3.99985">
        <ele>387.8</ele>
        <time>2019-06-20T12:34:44Z</time>
      </trkpt>
      <trkpt lat="45.97907" lon="3.99975">
        <ele>388.38</ele>
        <time>2019-06-20T12:35:02Z</time>
      </trkpt>
      <trkpt lat="45.97892" lon="3.99961">
        <ele>388.76</ele>
        <time>2019-06-20T12:35:18Z</time>
      </trkpt>
      <trkpt lat="45.97876" lon="3.99949">
        <ele>389.38</ele>
        <time>2019-06-20T12:35:28Z</time>
      </trkpt>
      <trkpt lat="45.97857" lon="3.99935">
        <ele>390.98</ele>
        <time>2019-06-20T12:35:50Z</time>
      </trkpt>
      <trkpt lat="45.97838" lon="3.9993">
        <ele>391.97</ele>
        <time>2019-06-20T12:36:08Z</time>
      </trkpt>
      <trkpt lat="45.97819" lon="3.99929">
        <ele>392.29</ele>
        <time>2019-06-20T12:36:26Z</time>
      </trkpt>
      <trkpt lat="45.97799" lon="3.99925">
        <ele>393.04</ele>
        <time>2019-06-20T12:36:40Z</time>
      </trkpt>
      <trkpt lat="45.97778" lon="3.9993">
        <ele>394.86</ele>
        <time>2019-06-20T12:37:00Z</time>
      </trkpt>
      <trkpt lat="45.9776" lon="3.99931">
        <ele>395.29</ele>
        <time>2019-06-20T12:37:16Z</time>
      </trkpt>
      <trkpt lat="45.97741" lon="3.99934">
        <ele>397.18</ele>
        <time>2019-06-20T12:37:34Z</time>
      </trkpt>
      <trkpt lat="45.9772" lon="3.99939">
        <ele>398.81</ele>
        <time>2019-06-20T12:37:54Z</time>
      </trkpt>
      <trkpt lat="45.97699" lon="3.99942">
        <ele>400.45</ele>
        <time>2019-06-20T12:38:08Z</time>
      </trkpt>
      <trkpt lat="45.97682" lon="3.99954">
        <ele>403.24</ele>
        <time>2019-06-20T12:38:26Z</time>
      </trkpt>
      <trkpt lat="45.97663" lon="3.99957">
        <ele>405.15</ele>
        <time>2019-06-20T12:38:46Z</time>
      </trkpt>
      <trkpt lat="45.97644" lon="3.99954">
        <ele>405.07</ele>
        <time>2019-06-20T12:39:04Z</time>
      </trkpt>
      <trkpt lat="45.97626" lon="3.99949">
        <ele>406.15</ele>
        <time>2019-06-20T12:39:22Z</time>
      </trkpt>
      <trkpt lat="45.97607" lon="3.99945">
        <ele>405.99</ele>
        <time>2019-06-20T12:39:40Z</time>
      </trkpt>
      <trkpt lat="45.97589" lon="3.9994">
        <ele>407.83</ele>
        <time>2019-06-20T12:40:00Z</time>
      </trkpt>
      <trkpt lat="45.97571" lon="3.99937">
        <ele>406.35</ele>
        <time>2019-06-20T12:40:16Z</time>
      </trkpt>
      <trkpt lat="45.97553" lon="3.99937">
        <ele>407.16</ele>
        <time>2019-06-20T12:40:34Z</time>
      </trkpt>
      <trkpt lat="45.97534" lon="3.99936">
        <ele>407.41</ele>
        <time>2019-06-20T12:40:56Z</time>
      </trkpt>
      <trkpt lat="45.97516" lon="3.99942">
        <ele>406.67</ele>
        <time>2019-06-20T12:41:12Z</time>
      </trkpt>
      <trkpt lat="45.97497" lon="3.99943">
        <ele>405.23</ele>
        <time>2019-06-20T12:41:30Z</time>
      </trkpt>
      <trkpt lat="45.97478" lon="3.99943">
        <ele>406.79</ele>
        <time>2019-06-20T12:41:48Z</time>
      </trkpt>
      <trkpt lat="45.97459" lon="3.99943">
        <ele>401.58</ele>
        <time>2019-06-20T12:42:04Z</time>
      </trkpt>
      <trkpt lat="45.97438" lon="3.99939">
        <ele>401.29</ele>
        <time>2019-06-20T12:42:22Z</time>
      </trkpt>
      <trkpt lat="45.97419" lon="3.99941">
        <ele>401.31</ele>
        <time>2019-06-20T12:42:38Z</time>
      </trkpt>
      <trkpt lat="45.97399" lon="3.99941">
        <ele>401.11</ele>
        <time>2019-06-20T12:42:52Z</time>
      </trkpt>
      <trkpt lat="45.97381" lon="3.9994">
        <ele>399.99</ele>
        <time>2019-06-20T12:43:08Z</time>
      </trkpt>
      <trkpt lat="45.97361" lon="3.99941">
        <ele>401.82</ele>
        <time>2019-06-20T12:43:24Z</time>
      </trkpt>
      <trkpt lat="45.97341" lon="3.99939">
        <ele>399.83</ele>
        <time>2019-06-20T12:43:46Z</time>
      </trkpt>
      <trkpt lat="45.97322" lon="3.99945">
        <ele>401.18</ele>
        <time>2019-06-20T12:44:04Z</time>
      </trkpt>
      <trkpt lat="45.97321" lon="3.99972">
        <ele>401.09</ele>
        <time>2019-06-20T12:44:26Z</time>
      </trkpt>
      <trkpt lat="45.97319" lon="4">
        <ele>400.02</ele>
        <time>2019-06-20T12:44:44Z</time>
      </trkpt>
      <trkpt lat="45.97316" lon="4.00028">
        <ele>398.57</ele>
        <time>2019-06-20T12:45:02Z</time>
      </trkpt>
      <trkpt lat="45.97313" lon="4.00055">
        <ele>397.45</ele>
        <time>2019-06-20T12:45:16Z</time>
      </trkpt>
      <trkpt lat="45.97311" lon="4.00082">
        <ele>396.94</ele>
        <time>2019-06-20T12:45:30Z</time>
      </trkpt>
      <trkpt lat="45.97309" lon="4.00109">
        <ele>396.63</ele>
        <time>2019-06-20T12:45:50Z</time>
      </trkpt>
      <trkpt lat="45.97307" lon="4.00139">
        <ele>396.12</ele>
        <time>2019-06-20T12:46:10Z</time>
      </trkpt>
      <trkpt lat="45.97301" lon="4.00164">
        <ele>393.64</ele>
        <time>2019-06-20T12:46:24Z</time>
      </trkpt>
      <trkpt lat="45.97296" lon="4.00163">
        <ele>373.3</ele>
      </trkpt>
      <trkpt lat="45.97275" lon="4.00192">
        <ele>372.9</ele>
      </trkpt>
      <trkpt lat="45.97243" lon="4.00211">
        <ele>370.4</ele>
      </trkpt>
      <trkpt lat="45.97227" lon="4.00226">
        <ele>370.5</ele>
      </trkpt>
      <trkpt lat="45.97222" lon="4.00235">
        <ele>370.6</ele>
      </trkpt>
      <trkpt lat="45.9722" lon="4.00239">
        <ele>370.9</ele>
      </trkpt>
      <trkpt lat="45.97216" lon="4.00252">
        <ele>371.5</ele>
      </trkpt>
      <trkpt lat="45.97215" lon="4.00313">
        <ele>371.4</ele>
      </trkpt>
      <trkpt lat="45.97212" lon="4.00327">
        <ele>372.2</ele>
      </trkpt>
      <trkpt lat="45.97203" lon="4.00336">
        <ele>373.9</ele>
      </trkpt>
      <trkpt lat="45.97194" lon="4.00341">
        <ele>375.2</ele>
      </trkpt>
      <trkpt lat="45.97187" lon="4.00341">
        <ele>375.9</ele>
      </trkpt>
      <trkpt lat="45.97149" lon="4.0035">
        <ele>376.6</ele>
      </trkpt>
      <trkpt lat="45.97134" lon="4.00346">
        <ele>376.7</ele>
      </trkpt>
      <trkpt lat="45.97093" lon="4.00321">
        <ele>377.3</ele>
      </trkpt>
      <trkpt lat="45.97082" lon="4.00313">
        <ele>377.9</ele>
      </trkpt>
      <trkpt lat="45.97079" lon="4.00319">
        <ele>376.9</ele>
      </trkpt>
      <trkpt lat="45.97076" lon="4.00325">
        <ele>375.9</ele>
      </trkpt>
      <trkpt lat="45.97069" lon="4.0033">
        <ele>375</ele>
      </trkpt>
      <trkpt lat="45.97059" lon="4.00333">
        <ele>374.2</ele>
      </trkpt>
      <trkpt lat="45.97026" lon="4.00329">
        <ele>370.5</ele>
      </trkpt>
      <trkpt lat="45.96997" lon="4.00333">
        <ele>365.6</ele>
      </trkpt>
      <trkpt lat="45.96977" lon="4.0033">
        <ele>363.1</ele>
      </trkpt>
      <trkpt lat="45.9696" lon="4.00331">
        <ele>363.2</ele>
      </trkpt>
      <trkpt lat="45.96946" lon="4.00335">
        <ele>363.6</ele>
      </trkpt>
      <trkpt lat="45.96919" lon="4.00336">
        <ele>363.8</ele>
      </trkpt>
      <trkpt lat="45.96912" lon="4.00345">
        <ele>363.9</ele>
      </trkpt>
      <trkpt lat="45.96909" lon="4.00355">
        <ele>364.1</ele>
      </trkpt>
      <trkpt lat="45.96909" lon="4.00363">
        <ele>364.3</ele>
      </trkpt>
      <trkpt lat="45.96911" lon="4.0037">
        <ele>365.2</ele>
      </trkpt>
      <trkpt lat="45.96922" lon="4.00382">
        <ele>365.6</ele>
      </trkpt>
      <trkpt lat="45.9694" lon="4.00393">
        <ele>364.8</ele>
      </trkpt>
      <trkpt lat="45.9694" lon="4.00399">
        <ele>366.3</ele>
      </trkpt>
      <trkpt lat="45.96938" lon="4.00417">
        <ele>371</ele>
      </trkpt>
      <trkpt lat="45.96921" lon="4.00486">
        <ele>375.6</ele>
      </trkpt>
      <trkpt lat="45.96902" lon="4.00538">
        <ele>374.9</ele>
      </trkpt>
      <trkpt lat="45.96893" lon="4.00567">
        <ele>374.2</ele>
      </trkpt>
      <trkpt lat="45.96867" lon="4.00589">
        <ele>373</ele>
      </trkpt>
      <trkpt lat="45.96812" lon="4.00634">
        <ele>376.6</ele>
      </trkpt>
      <trkpt lat="45.96805" lon="4.00645">
        <ele>377.5</ele>
      </trkpt>
      <trkpt lat="45.96797" lon="4.00693">
        <ele>377.8</ele>
      </trkpt>
      <trkpt lat="45.96786" lon="4.00721">
        <ele>377.4</ele>
      </trkpt>
      <trkpt lat="45.96773" lon="4.00739">
        <ele>378.2</ele>
      </trkpt>
      <trkpt lat="45.96761" lon="4.00758">
        <ele>378.8</ele>
      </trkpt>
      <trkpt lat="45.96752" lon="4.00768">
        <ele>380.2</ele>
      </trkpt>
      <trkpt lat="45.96745" lon="4.00774">
        <ele>381.3</ele>
      </trkpt>
      <trkpt lat="45.96732" lon="4.00781">
        <ele>382.6</ele>
      </trkpt>
      <trkpt lat="45.96705" lon="4.00791">
        <ele>381.5</ele>
      </trkpt>
      <trkpt lat="45.96674" lon="4.00797">
        <ele>385</ele>
      </trkpt>
      <trkpt lat="45.9666" lon="4.00805">
        <ele>386.7</ele>
      </trkpt>
      <trkpt lat="45.96657" lon="4.00825">
        <ele>381.4</ele>
      </trkpt>
      <trkpt lat="45.96641" lon="4.00829">
        <ele>384.7</ele>
      </trkpt>
      <trkpt lat="45.96605" lon="4.00856">
        <ele>376.7</ele>
      </trkpt>
      <trkpt lat="45.96602" lon="4.00856">
        <ele>377</ele>
      </trkpt>
      <trkpt lat="45.96577" lon="4.00845">
        <ele>384.5</ele>
      </trkpt>
      <trkpt lat="45.96574" lon="4.00846">
        <ele>384.4</ele>
      </trkpt>
      <trkpt lat="45.96568" lon="4.00852">
        <ele>383.5</ele>
      </trkpt>
      <trkpt lat="45.96564" lon="4.00862">
        <ele>382.2</ele>
      </trkpt>
      <trkpt lat="45.9656" lon="4.00875">
        <ele>378.6</ele>
      </trkpt>
      <trkpt lat="45.96553" lon="4.00881">
        <ele>378.8</ele>
      </trkpt>
      <trkpt lat="45.96547" lon="4.00882">
        <ele>379</ele>
      </trkpt>
      <trkpt lat="45.96545" lon="4.00881">
        <ele>379.4</ele>
      </trkpt>
      <trkpt lat="45.96537" lon="4.00892">
        <ele>377.9</ele>
      </trkpt>
      <trkpt lat="45.96532" lon="4.00896">
        <ele>378</ele>
      </trkpt>
      <trkpt lat="45.96519" lon="4.00898">
        <ele>377.6</ele>
      </trkpt>
      <trkpt lat="45.965" lon="4.00888">
        <ele>377</ele>
      </trkpt>
      <trkpt lat="45.96495" lon="4.00883">
        <ele>376.7</ele>
      </trkpt>
      <trkpt lat="45.96494" lon="4.00889">
        <ele>376.3</ele>
      </trkpt>
      <trkpt lat="45.96494" lon="4.00894">
        <ele>375.4</ele>
      </trkpt>
      <trkpt lat="45.96491" lon="4.00928">
        <ele>368.6</ele>
      </trkpt>
      <trkpt lat="45.96488" lon="4.00948">
        <ele>364.8</ele>
      </trkpt>
      <trkpt lat="45.96479" lon="4.00966">
        <ele>360.6</ele>
      </trkpt>
      <trkpt lat="45.9647" lon="4.00975">
        <ele>358.7</ele>
      </trkpt>
      <trkpt lat="45.96467" lon="4.00982">
        <ele>358.1</ele>
      </trkpt>
      <trkpt lat="45.96464" lon="4.0098">
        <ele>357.7</ele>
      </trkpt>
      <trkpt lat="45.96463" lon="4.0098">
        <ele>357.5</ele>
        <extensions>
          <visugpx:TrkExtension xmlns:visugpx="https://www.visugpx.com/editgpx/">
            <visugpx:node>1</visugpx:node>
            </visugpx:TrkExtension>
        </extensions>
      </trkpt>
      <trkpt lat="45.96462" lon="4.00988">
        <ele>377.4</ele>
        <time>2019-06-20T13:37:58Z</time>
        <extensions>
          <visugpx:TrkExtension xmlns:visugpx="https://www.visugpx.com/editgpx/">
            <visugpx:node>2</visugpx:node>
            </visugpx:TrkExtension>
        </extensions>
      </trkpt>
      <trkpt lat="45.96451" lon="4.01011">
        <ele>377.85</ele>
        <time>2019-06-20T13:38:12Z</time>
      </trkpt>
      <trkpt lat="45.96444" lon="4.01037">
        <ele>376.73</ele>
        <time>2019-06-20T13:38:32Z</time>
      </trkpt>
      <trkpt lat="45.96439" lon="4.01063">
        <ele>376.95</ele>
        <time>2019-06-20T13:38:48Z</time>
      </trkpt>
      <trkpt lat="45.96438" lon="4.0109">
        <ele>377.23</ele>
        <time>2019-06-20T13:39:16Z</time>
      </trkpt>
      <trkpt lat="45.96445" lon="4.01115">
        <ele>375.76</ele>
        <time>2019-06-20T13:39:34Z</time>
      </trkpt>
      <trkpt lat="45.96433" lon="4.01137">
        <ele>383.47</ele>
        <time>2019-06-20T13:42:36Z</time>
      </trkpt>
      <trkpt lat="45.96443" lon="4.0116">
        <ele>373.52</ele>
        <time>2019-06-20T13:43:12Z</time>
      </trkpt>
      <trkpt lat="45.96463" lon="4.01163">
        <ele>375.71</ele>
        <time>2019-06-20T13:43:44Z</time>
      </trkpt>
      <trkpt lat="45.96474" lon="4.01185">
        <ele>376.5</ele>
        <time>2019-06-20T13:44:04Z</time>
      </trkpt>
      <trkpt lat="45.9649" lon="4.01197">
        <ele>378.21</ele>
        <time>2019-06-20T13:45:36Z</time>
      </trkpt>
      <trkpt lat="45.96488" lon="4.01169">
        <ele>381.77</ele>
        <time>2019-06-20T13:47:26Z</time>
      </trkpt>
      <trkpt lat="45.96485" lon="4.01143">
        <ele>380.66</ele>
        <time>2019-06-20T13:47:44Z</time>
      </trkpt>
      <trkpt lat="45.96479" lon="4.01115">
        <ele>386.57</ele>
        <time>2019-06-20T13:48:48Z</time>
      </trkpt>
      <trkpt lat="45.96479" lon="4.01089">
        <ele>389.54</ele>
        <time>2019-06-20T13:49:12Z</time>
      </trkpt>
      <trkpt lat="45.9649" lon="4.01068">
        <ele>393.44</ele>
        <time>2019-06-20T13:50:16Z</time>
      </trkpt>
      <trkpt lat="45.96487" lon="4.01042">
        <ele>395.27</ele>
        <time>2019-06-20T13:52:42Z</time>
      </trkpt>
      <trkpt lat="45.96471" lon="4.01055">
        <ele>393.33</ele>
        <time>2019-06-20T13:54:58Z</time>
      </trkpt>
      <trkpt lat="45.96472" lon="4.01081">
        <ele>390.16</ele>
        <time>2019-06-20T13:55:30Z</time>
      </trkpt>
      <trkpt lat="45.96476" lon="4.01107">
        <ele>385.99</ele>
        <time>2019-06-20T13:55:56Z</time>
      </trkpt>
      <trkpt lat="45.96462" lon="4.01122">
        <ele>380.73</ele>
        <time>2019-06-20T13:56:40Z</time>
      </trkpt>
      <trkpt lat="45.96448" lon="4.01103">
        <ele>378.34</ele>
        <time>2019-06-20T13:56:56Z</time>
      </trkpt>
      <trkpt lat="45.96444" lon="4.01076">
        <ele>378.45</ele>
        <time>2019-06-20T13:57:16Z</time>
      </trkpt>
      <trkpt lat="45.96447" lon="4.0105">
        <ele>378.37</ele>
        <time>2019-06-20T13:57:30Z</time>
      </trkpt>
      <trkpt lat="45.96453" lon="4.01022">
        <ele>377.2</ele>
        <time>2019-06-20T13:57:56Z</time>
      </trkpt>
      <trkpt lat="45.96466" lon="4.01001">
        <ele>379.63</ele>
        <time>2019-06-20T13:58:15Z</time>
      </trkpt>
      <trkpt lat="45.96468" lon="4.00975">
        <ele>380.91</ele>
        <time>2019-06-20T13:58:31Z</time>
      </trkpt>
      <trkpt lat="45.96454" lon="4.00956">
        <ele>381.24</ele>
        <time>2019-06-20T13:59:11Z</time>
      </trkpt>
      <trkpt lat="45.9645" lon="4.00928">
        <ele>386.66</ele>
        <time>2019-06-20T14:00:17Z</time>
      </trkpt>
      <trkpt lat="45.96441" lon="4.00904">
        <ele>391.95</ele>
        <time>2019-06-20T14:00:47Z</time>
      </trkpt>
      <trkpt lat="45.96439" lon="4.00876">
        <ele>395.43</ele>
        <time>2019-06-20T14:01:17Z</time>
      </trkpt>
      <trkpt lat="45.96457" lon="4.00883">
        <ele>396</ele>
        <time>2019-06-20T14:01:45Z</time>
      </trkpt>
      <trkpt lat="45.96474" lon="4.00875">
        <ele>397.26</ele>
        <time>2019-06-20T14:02:13Z</time>
      </trkpt>
      <trkpt lat="45.96493" lon="4.00873">
        <ele>397.93</ele>
        <time>2019-06-20T14:02:27Z</time>
      </trkpt>
      <trkpt lat="45.96499" lon="4.00847">
        <ele>400.22</ele>
        <time>2019-06-20T14:03:01Z</time>
      </trkpt>
      <trkpt lat="45.96503" lon="4.00821">
        <ele>402.2</ele>
        <time>2019-06-20T14:03:33Z</time>
      </trkpt>
      <trkpt lat="45.96509" lon="4.00796">
        <ele>404.48</ele>
        <time>2019-06-20T14:03:53Z</time>
      </trkpt>
      <trkpt lat="45.96512" lon="4.00769">
        <ele>406.01</ele>
        <time>2019-06-20T14:04:23Z</time>
      </trkpt>
      <trkpt lat="45.9652" lon="4.00746">
        <ele>408.45</ele>
        <time>2019-06-20T14:04:51Z</time>
      </trkpt>
      <trkpt lat="45.96534" lon="4.00727">
        <ele>409.88</ele>
        <time>2019-06-20T14:05:11Z</time>
      </trkpt>
      <trkpt lat="45.9654" lon="4.00701">
        <ele>410.39</ele>
        <time>2019-06-20T14:05:29Z</time>
      </trkpt>
      <trkpt lat="45.96553" lon="4.0068">
        <ele>411.41</ele>
        <time>2019-06-20T14:05:51Z</time>
      </trkpt>
      <trkpt lat="45.96567" lon="4.00664">
        <ele>412.96</ele>
        <time>2019-06-20T14:06:13Z</time>
      </trkpt>
      <trkpt lat="45.96578" lon="4.00641">
        <ele>414.1</ele>
        <time>2019-06-20T14:06:31Z</time>
      </trkpt>
      <trkpt lat="45.96586" lon="4.00615">
        <ele>415.2</ele>
        <time>2019-06-20T14:06:49Z</time>
      </trkpt>
      <trkpt lat="45.96594" lon="4.00588">
        <ele>416.17</ele>
        <time>2019-06-20T14:07:05Z</time>
      </trkpt>
      <trkpt lat="45.96601" lon="4.00564">
        <ele>420.17</ele>
        <time>2019-06-20T14:07:23Z</time>
      </trkpt>
      <trkpt lat="45.96608" lon="4.00539">
        <ele>417.3</ele>
        <time>2019-06-20T14:07:37Z</time>
      </trkpt>
      <trkpt lat="45.96611" lon="4.00512">
        <ele>418.17</ele>
        <time>2019-06-20T14:07:57Z</time>
      </trkpt>
      <trkpt lat="45.96608" lon="4.00483">
        <ele>421.39</ele>
        <time>2019-06-20T14:08:15Z</time>
      </trkpt>
      <trkpt lat="45.96607" lon="4.00456">
        <ele>421.46</ele>
        <time>2019-06-20T14:08:31Z</time>
      </trkpt>
      <trkpt lat="45.96605" lon="4.0043">
        <ele>423.54</ele>
        <time>2019-06-20T14:08:45Z</time>
      </trkpt>
      <trkpt lat="45.96607" lon="4.00403">
        <ele>423.97</ele>
        <time>2019-06-20T14:09:01Z</time>
      </trkpt>
      <trkpt lat="45.96606" lon="4.00376">
        <ele>425.63</ele>
        <time>2019-06-20T14:09:17Z</time>
      </trkpt>
      <trkpt lat="45.96611" lon="4.0035">
        <ele>426.86</ele>
        <time>2019-06-20T14:09:31Z</time>
      </trkpt>
      <trkpt lat="45.96611" lon="4.00323">
        <ele>424.6</ele>
        <time>2019-06-20T14:09:51Z</time>
      </trkpt>
      <trkpt lat="45.96622" lon="4.00301">
        <ele>422.31</ele>
        <time>2019-06-20T14:10:15Z</time>
      </trkpt>
      <trkpt lat="45.9664" lon="4.00286">
        <ele>421.59</ele>
        <time>2019-06-20T14:11:35Z</time>
      </trkpt>
      <trkpt lat="45.96653" lon="4.00267">
        <ele>420.93</ele>
        <time>2019-06-20T14:11:51Z</time>
      </trkpt>
      <trkpt lat="45.96668" lon="4.00251">
        <ele>419.66</ele>
        <time>2019-06-20T14:12:09Z</time>
      </trkpt>
      <trkpt lat="45.9668" lon="4.0023">
        <ele>416.67</ele>
        <time>2019-06-20T14:12:23Z</time>
      </trkpt>
      <trkpt lat="45.96689" lon="4.00206">
        <ele>416.06</ele>
        <time>2019-06-20T14:12:39Z</time>
      </trkpt>
      <trkpt lat="45.967" lon="4.00184">
        <ele>414.67</ele>
        <time>2019-06-20T14:12:53Z</time>
      </trkpt>
      <trkpt lat="45.96719" lon="4.00176">
        <ele>413.69</ele>
        <time>2019-06-20T14:13:07Z</time>
        <extensions>
          <visugpx:TrkExtension xmlns:visugpx="https://www.visugpx.com/editgpx/">
            <visugpx:node>3</visugpx:node>
            </visugpx:TrkExtension>
        </extensions>
      </trkpt>
    </trkseg>
  </trk>
</gpx>